PS949 / UR-PSG 7700 Squawk Report (20th of September, 2019)

Aircraft B738 Reg No. UR-PSG Age 20 years old
Model 737 Jet engines 2 First flight 28-05-99
Registered 06-13 Rollout N/A Delivered 21-06-99
Construction No. 29038 Line No. 0297 Series 85R
ADSHEX 5082C8 Airline name Ukraine International Airlines Owner AWAS Leasing
Airfield based Kiev-Borispol~Kiev~UR First tracked 2017-07-13 05:05:00

Flight history for UR-PSG

Route Flight No Date Playback
Václav Havel Airport Prague (PRG) - Boryspil Intl (KBP) PS808 2019-10-21 15:17:00
Boryspil Intl (KBP) - Václav Havel Airport Prague (PRG) PS807 2019-10-21 12:26:00
Odesa Intl (ODS) - Boryspil Intl (KBP) PS58 2019-10-21 10:43:00
Boryspil Intl (KBP) - Odesa Intl (ODS) PS57 2019-10-21 08:46:00
Osnova International Airport (HRK) - Boryspil Intl (KBP) PS24 2019-10-21 04:59:00
???? N/A 2019-10-21 01:25:00
Osnova International Airport (HRK) - Ben Gurion (TLV) PS793 2019-10-20 21:20:00
???? N/A 2019-10-20 20:21:00
Boryspil Intl (KBP) - Osnova International Airport (HRK) PS23 2019-10-20 18:32:00
???? PS5326 2019-10-20 16:53:00
???? N/A 2019-10-20 10:08:00
???? N/A 2019-10-20 07:51:00
???? PS5325 2019-10-20 04:10:00
Frankfurt Main (FRA) - Boryspil Intl (KBP) PS402 2019-10-20 00:51:00
Boryspil Intl (KBP) - Frankfurt Main (FRA) PS401 2019-10-19 12:36:00
Brussels Airport (BRU) - Boryspil Intl (KBP) PS148 2019-10-19 06:31:00
Boryspil Intl (KBP) - Brussels Airport (BRU) PS147 2019-10-19 04:10:00
Václav Havel Airport Prague (PRG) - Boryspil Intl (KBP) PS808 2019-10-18 15:18:00
Boryspil Intl (KBP) - Václav Havel Airport Prague (PRG) PS807 2019-10-18 12:28:00
Odesa Intl (ODS) - Boryspil Intl (KBP) PS58 2019-10-18 10:46:00
Time Lat Lon Altitude Heading Speed Vertical Rate
2019-09-20 22:28:08 GMT 43.380821 5.255977 450 314 161 -1152
2019-09-20 22:27:58 GMT 43.375980 5.263040 650 315 171 -1344
2019-09-20 22:27:48 GMT 43.370544 5.270883 1,075 315 171 -1344
2019-09-20 22:27:38 GMT 43.364712 5.278931 1,125 313 173 -832
2019-09-20 22:27:27 GMT 43.358505 5.288065 1,250 315 178 -1280
2019-09-20 22:27:17 GMT 43.353027 5.295606 1,450 316 183 -1280
2019-09-20 22:27:07 GMT 43.346512 5.304353 1,650 315 188 -1024
2019-09-20 22:26:56 GMT 43.340103 5.313359 1,850 313 194 -1344
2019-09-20 22:26:47 GMT 43.334290 5.322876 2,075 309 197 -1344
2019-09-20 22:26:35 GMT 43.326553 5.333798 2,300 327 204 -768
2019-09-20 22:26:24 GMT 43.317417 5.338309 2,400 353 208 -768
2019-09-20 22:26:15 GMT 43.307964 5.338636 2,600 0 214 -1472
2019-09-20 22:26:04 GMT 43.297165 5.339028 2,875 358 222 -1600
2019-09-20 22:25:53 GMT 43.285904 5.339675 3,175 358 229 -1792
2019-09-20 22:25:42 GMT 43.274460 5.340505 3,500 356 236 -1280
2019-09-20 22:25:35 GMT 43.265259 5.341527 3,625 355 242 -640
2019-09-20 22:25:31 GMT 43.261925 5.342037 3,650 354 245 -512
2019-09-20 22:25:23 GMT 43.252945 5.343443 3,700 354 252 -384
2019-09-20 22:25:20 GMT 43.248940 5.344129 3,725 354 255 -576
2019-09-20 22:25:14 GMT 43.241638 5.345168 3,750 354 261 -320
2019-09-20 22:25:08 GMT 43.234879 5.346026 3,775 355 266 -128
2019-09-20 22:25:04 GMT 43.229279 5.346701 3,775 358 271 0
2019-09-20 22:24:58 GMT 43.222122 5.346941 3,775 1 273 -64
2019-09-20 22:24:53 GMT 43.215088 5.346318 3,775 6 273 64
2019-09-20 22:24:47 GMT 43.208679 5.344721 3,800 15 273 -384
2019-09-20 22:24:43 GMT 43.202946 5.342102 3,825 23 269 -384
2019-09-20 22:24:36 GMT 43.196136 5.336545 3,875 37 266 -384
2019-09-20 22:24:33 GMT 43.192329 5.331900 3,900 46 261 -448
2019-09-20 22:24:26 GMT 43.188080 5.324026 3,950 59 257 -384
2019-09-20 22:24:21 GMT 43.183720 5.311693 4,000 67 255 -448
2019-09-20 22:24:15 GMT 43.182835 5.308424 4,025 67 255 -448
2019-09-20 22:24:05 GMT 43.178085 5.292794 4,100 67 254 -384
2019-09-20 22:23:54 GMT 43.173248 5.276631 4,175 68 251 -320
2019-09-20 22:23:43 GMT 43.168625 5.260535 4,250 67 242 -384
2019-09-20 22:23:35 GMT 43.164642 5.247632 4,300 67 239 -576
2019-09-20 22:23:32 GMT 43.163795 5.244729 4,325 67 240 -576
2019-09-20 22:23:22 GMT 43.159470 5.230642 4,425 67 243 -576
2019-09-20 22:23:11 GMT 43.154755 5.215184 4,525 67 249 -640
2019-09-20 22:22:59 GMT 43.149593 5.197841 4,650 67 254 -640
2019-09-20 22:22:49 GMT 43.145081 5.183127 4,750 67 260 -640
2019-09-20 22:22:38 GMT 43.140003 5.166255 4,850 67 266 -640
2019-09-20 22:22:28 GMT 43.134979 5.149969 4,975 67 273 -704
2019-09-20 22:22:17 GMT 43.129807 5.132851 5,075 67 280 -640
2019-09-20 22:22:07 GMT 43.124405 5.115477 5,200 67 286 -640
2019-09-20 22:21:57 GMT 43.119370 5.098678 5,300 67 294 -704
2019-09-20 22:21:46 GMT 43.113842 5.080523 5,450 67 301 -896
2019-09-20 22:21:36 GMT 43.108246 5.062334 5,600 67 304 -768
2019-09-20 22:21:26 GMT 43.102577 5.043444 5,725 67 304 -704
2019-09-20 22:21:16 GMT 43.097130 5.025722 5,825 67 305 -704
2019-09-20 22:21:09 GMT 43.093639 5.014212 5,925 67 305 -704
2019-09-20 22:21:05 GMT 43.091400 5.006891 5,975 67 305 -704
2019-09-20 22:20:54 GMT 43.085587 4.987474 6,100 67 304 -768
2019-09-20 22:20:43 GMT 43.079544 4.967864 6,225 67 304 -704
2019-09-20 22:20:32 GMT 43.073574 4.948687 6,350 66 304 -704
2019-09-20 22:20:21 GMT 43.067322 4.928773 6,475 66 303 -640
2019-09-20 22:20:10 GMT 43.061192 4.909188 6,600 67 302 -512
2019-09-20 22:19:58 GMT 43.055141 4.889243 6,700 67 301 -768
2019-09-20 22:19:47 GMT 43.049103 4.869371 6,850 67 299 -896
2019-09-20 22:19:36 GMT 43.043129 4.849810 7,025 67 296 -768
2019-09-20 22:19:25 GMT 43.037476 4.830727 7,175 67 290 -768
2019-09-20 22:19:14 GMT 43.031982 4.812203 7,300 67 286 -896
2019-09-20 22:19:03 GMT 43.026352 4.793999 7,475 67 287 -896
2019-09-20 22:18:51 GMT 43.020180 4.773887 7,650 67 290 -896
2019-09-20 22:18:41 GMT 43.015182 4.757399 7,800 67 295 -960
2019-09-20 22:18:30 GMT 43.009415 4.738876 7,975 67 299 -896
2019-09-20 22:18:20 GMT 43.003464 4.720161 8,125 66 302 -960
2019-09-20 22:18:09 GMT 42.997322 4.700644 8,325 66 305 -1024
2019-09-20 22:17:58 GMT 42.991287 4.681198 8,500 66 311 -1088
2019-09-20 22:17:45 GMT 42.983963 4.658072 8,725 66 319 -1024
2019-09-20 22:17:35 GMT 42.977959 4.638650 9,325 67 346 -1024
2019-09-20 22:17:26 GMT 42.972416 4.621320 9,075 67 336 -1088
2019-09-20 22:17:12 GMT 42.963711 4.593004 9,325 67 348 -1024
2019-09-20 22:17:05 GMT 42.959568 4.579337 9,425 67 357 -1024
2019-09-20 22:16:54 GMT 42.952446 4.556514 9,675 67 366 -1792
2019-09-20 22:16:45 GMT 42.946152 4.535884 9,975 66 376 -1664
2019-09-20 22:16:33 GMT 42.938507 4.511548 10,300 66 381 -1664
2019-09-20 22:16:22 GMT 42.930241 4.485103 10,600 66 385 -1600
2019-09-20 22:16:11 GMT 42.922977 4.462411 10,850 66 388 -1536
2019-09-20 22:16:01 GMT 42.915997 4.440308 11,125 66 389 -1600
2019-09-20 22:15:50 GMT 42.907757 4.413888 11,425 65 390 -1664
2019-09-20 22:15:39 GMT 42.898224 4.389932 11,700 53 393 -1472
2019-09-20 22:15:28 GMT 42.885590 4.369301 11,975 44 394 -1472
2019-09-20 22:15:14 GMT 42.865906 4.347775 12,325 28 394 -1472
2019-09-20 22:15:06 GMT 42.851986 4.338357 12,525 21 396 -1536
2019-09-20 22:14:54 GMT 42.832249 4.328417 12,975 20 399 -3136
2019-09-20 22:14:42 GMT 42.811844 4.318074 13,525 20 401 -2752
2019-09-20 22:14:32 GMT 42.793797 4.308685 14,075 20 404 -3456
2019-09-20 22:14:25 GMT 42.780579 4.301772 14,525 20 405 -3392
2019-09-20 22:14:21 GMT 42.774261 4.298588 14,725 21 407 -3328
2019-09-20 22:14:18 GMT 42.769958 4.296279 14,875 21 407 -3520
2019-09-20 22:14:10 GMT 42.755718 4.288820 15,375 21 407 -3776
2019-09-20 22:14:07 GMT 42.750366 4.286041 15,550 21 407 -3648
2019-09-20 22:13:58 GMT 42.733746 4.277386 16,025 20 410 -2880
2019-09-20 22:13:46 GMT 42.712784 4.266378 16,625 21 414 -2880
2019-09-20 22:13:38 GMT 42.696167 4.257764 17,050 21 419 -2944
2019-09-20 22:13:27 GMT 42.677418 4.247877 17,575 20 422 -3200
2019-09-20 22:13:17 GMT 42.659088 4.238538 18,150 20 425 -3264
2019-09-20 22:13:06 GMT 42.639847 4.228714 18,675 20 428 -3200
2019-09-20 22:12:57 GMT 42.621136 4.219197 19,200 20 432 -3136
2019-09-20 22:12:54 GMT 42.617203 4.217314 19,300 20 433 -3264
2019-09-20 22:12:47 GMT 42.603287 4.210323 19,750 18 437 -3072
2019-09-20 22:12:44 GMT 42.597290 4.207514 19,750 18 437 -3072
2019-09-20 22:12:37 GMT 42.583382 4.202654 20,175 12 438 -3200
2019-09-20 22:12:33 GMT 42.576324 4.201272 20,450 5 439 -3456
2019-09-20 22:12:26 GMT 42.562664 4.200227 20,825 1 440 -3200
2019-09-20 22:12:22 GMT 42.553848 4.200023 21,525 359 446 -3072
2019-09-20 22:12:17 GMT 42.541168 4.199836 21,350 359 446 -3072
2019-09-20 22:12:14 GMT 42.538456 4.199843 21,425 0 446 -3008
2019-09-20 22:12:11 GMT 42.531738 4.200211 21,525 359 446 -3200
2019-09-20 22:12:04 GMT 42.517647 4.202398 22,200 349 447 -3328
2019-09-20 22:12:01 GMT 42.510574 4.204442 22,200 345 447 -3328
2019-09-20 22:11:53 GMT 42.494278 4.212363 22,725 335 446 -3648
2019-09-20 22:11:50 GMT 42.489998 4.215365 22,825 332 447 -3776
2019-09-20 22:11:46 GMT 42.480686 4.222902 23,150 326 446 -3776
2019-09-20 22:11:42 GMT 42.474335 4.229362 23,275 324 446 -3776
2019-09-20 22:11:39 GMT 42.471050 4.232994 23,525 319 445 -3840
2019-09-20 22:11:34 GMT 42.462204 4.244718 23,925 312 444 -3776
2019-09-20 22:11:31 GMT 42.456116 4.255267 24,125 308 443 -3776
2019-09-20 22:11:28 GMT 42.456116 4.255267 24,225 306 442 -3840
2019-09-20 22:11:24 GMT 42.451263 4.265192 24,650 302 442 -3904
2019-09-20 22:11:21 GMT 42.448284 4.272851 24,900 292 440 -4032
2019-09-20 22:11:18 GMT 42.445679 4.280049 24,900 294 440 -3968
2019-09-20 22:11:14 GMT 42.442886 4.290353 25,100 289 440 -4096
2019-09-20 22:11:10 GMT 42.440598 4.301023 25,650 283 439 -3648
2019-09-20 22:11:05 GMT 42.438675 4.314943 25,750 276 439 -3712
2019-09-20 22:11:02 GMT 42.438137 4.322928 25,925 275 440 -3904
2019-09-20 22:10:57 GMT 42.438091 4.336150 26,300 267 437 -4992
2019-09-20 22:10:52 GMT 42.439224 4.348776 26,725 260 433 -5952
2019-09-20 22:10:47 GMT 42.441513 4.363195 27,200 254 431 -5056
2019-09-20 22:10:44 GMT 42.442886 4.369375 27,400 252 431 -4352
2019-09-20 22:10:41 GMT 42.444794 4.376583 27,600 249 432 -3584
2019-09-20 22:10:37 GMT 42.447914 4.386483 27,825 244 435 -1792
2019-09-20 22:10:34 GMT 42.450520 4.393637 27,925 238 436 -1728
2019-09-20 22:10:31 GMT 42.453690 4.400961 27,925 238 436 -1728
2019-09-20 22:10:25 GMT 42.466209 4.423658 28,225 231 434 -1728
2019-09-20 22:10:22 GMT 42.466209 4.423658 28,250 231 434 -1792
2019-09-20 22:10:14 GMT 42.475433 4.438601 28,475 231 433 -1792
2019-09-20 22:10:11 GMT 42.479710 4.445503 28,575 230 433 -1792
2019-09-20 22:10:04 GMT 42.489899 4.461947 28,800 230 433 -1728
2019-09-20 22:10:00 GMT 42.493607 4.467628 28,875 230 433 -1728
2019-09-20 22:09:53 GMT 42.502892 4.482550 29,075 230 434 -1792
2019-09-20 22:09:49 GMT 42.507019 4.489226 29,225 230 434 -1728
2019-09-20 22:09:45 GMT 42.513554 4.499668 29,325 230 434 -1728
2019-09-20 22:09:39 GMT 42.520935 4.511386 29,475 230 434 -1728
2019-09-20 22:09:34 GMT 42.527237 4.521385 29,625 230 433 -1728
2019-09-20 22:09:31 GMT 42.531418 4.528177 29,725 230 433 -1664
2019-09-20 22:09:28 GMT 42.535172 4.534045 29,775 230 432 -1664
2019-09-20 22:09:24 GMT 42.541351 4.543845 29,950 230 430 -1856
2019-09-20 22:09:21 GMT 42.543903 4.548148 30,025 230 430 -1920
2019-09-20 22:09:17 GMT 42.549397 4.557091 30,150 230 429 -1984
2019-09-20 22:09:11 GMT 42.557217 4.569354 30,350 230 429 -1984
2019-09-20 22:09:07 GMT 42.562340 4.577466 30,425 230 429 -1984
2019-09-20 22:09:03 GMT 42.567993 4.586730 30,625 230 430 -2048
2019-09-20 22:08:59 GMT 42.572983 4.594595 30,750 230 430 -1984
2019-09-20 22:08:56 GMT 42.577560 4.602023 30,875 230 430 -1984
2019-09-20 22:08:53 GMT 42.581055 4.607487 30,975 230 430 -1984
2019-09-20 22:08:48 GMT 42.586304 4.615943 31,100 230 430 -1984
2019-09-20 22:08:42 GMT 42.593903 4.628240 31,300 230 430 -1984
2019-09-20 22:08:38 GMT 42.599579 4.636997 31,425 230 431 -1984
2019-09-20 22:08:32 GMT 42.607960 4.650474 31,650 230 431 -1984
2019-09-20 22:08:28 GMT 42.612568 4.658139 31,775 230 432 -1984
2019-09-20 22:08:24 GMT 42.618759 4.668104 31,925 231 431 -1984
2019-09-20 22:08:20 GMT 42.626347 4.680431 32,125 231 431 -1920
2019-09-20 22:08:13 GMT 42.631657 4.688927 32,250 231 431 -1664
2019-09-20 22:08:10 GMT 42.636108 4.696281 32,275 230 430 -1600
2019-09-20 22:08:07 GMT 42.639175 4.701275 32,400 230 430 -1408
2019-09-20 22:08:01 GMT 42.646973 4.713582 32,550 231 429 -1408
2019-09-20 22:07:57 GMT 42.651947 4.721811 32,625 231 428 -1472
2019-09-20 22:07:51 GMT 42.659634 4.734022 32,775 231 426 -1408
2019-09-20 22:07:47 GMT 42.664764 4.742286 32,875 230 425 -1408
2019-09-20 22:07:41 GMT 42.672134 4.754271 33,025 231 415 -1408
2019-09-20 22:07:38 GMT 42.675694 4.760274 33,100 231 422 -1408
2019-09-20 22:07:31 GMT 42.685188 4.775412 33,250 231 420 -1408
2019-09-20 22:07:27 GMT 42.688683 4.781033 33,325 231 419 -1408
2019-09-20 22:07:24 GMT 42.692642 4.787605 33,400 231 418 -1472
2019-09-20 22:07:18 GMT 42.701569 4.802024 33,575 231 416 -1472
2019-09-20 22:07:14 GMT 42.705780 4.809078 33,650 231 416 -1408
2019-09-20 22:07:09 GMT 42.711456 4.818316 33,800 231 415 -1408
2019-09-20 22:07:06 GMT 42.716148 4.825681 33,875 231 414 -1472
2019-09-20 22:07:03 GMT 42.719360 4.831046 33,875 231 414 -1472
2019-09-20 22:07:00 GMT 42.723587 4.837667 34,025 231 414 -1472
2019-09-20 22:06:57 GMT 42.726608 4.842661 34,075 231 414 -1472
2019-09-20 22:06:52 GMT 42.732117 4.851614 34,125 231 414 -1472
2019-09-20 22:06:48 GMT 42.737793 4.860875 34,350 231 414 -1472
2019-09-20 22:06:44 GMT 42.745663 4.873586 34,375 230 415 -1408
2019-09-20 22:06:41 GMT 42.745663 4.873586 34,425 230 415 -1408
2019-09-20 22:06:37 GMT 42.752876 4.885084 34,575 230 415 -1408
2019-09-20 22:06:34 GMT 42.755997 4.890352 34,650 231 415 -1472
2019-09-20 22:06:30 GMT 42.758926 4.895033 34,700 231 415 -1408
2019-09-20 22:06:27 GMT 42.763538 4.902266 34,800 231 415 -1408
2019-09-20 22:06:24 GMT 42.767075 4.908270 34,900 231 415 -1472
2019-09-20 22:06:20 GMT 42.777191 4.924622 35,000 231 414 -1472
2019-09-20 22:06:16 GMT 42.777191 4.924622 35,075 231 414 -1472
2019-09-20 22:06:13 GMT 42.781723 4.932112 35,125 231 414 -1472
2019-09-20 22:06:08 GMT 42.787949 4.942037 35,250 230 413 -1472
2019-09-20 22:06:05 GMT 42.789791 4.945189 35,325 230 413 -1472
2019-09-20 22:06:02 GMT 42.794586 4.952726 35,375 230 414 -1472
2019-09-20 22:05:58 GMT 42.798706 4.959391 35,475 230 414 -1472
2019-09-20 22:05:55 GMT 42.802826 4.966132 35,625 230 415 -1344
2019-09-20 22:05:52 GMT 42.807949 4.974188 35,625 230 414 -1280
2019-09-20 22:05:47 GMT 42.812138 4.980861 35,700 230 414 -1280
2019-09-20 22:05:44 GMT 42.816887 4.988578 35,800 230 414 -1280
2019-09-20 22:05:41 GMT 42.820450 4.994308 35,875 230 414 -1280
2019-09-20 22:05:38 GMT 42.824100 5.000087 35,925 230 414 -1280
2019-09-20 22:05:34 GMT 42.829102 5.007849 36,025 230 412 -1344
2019-09-20 22:05:30 GMT 42.833908 5.015387 36,100 230 412 -1344
2019-09-20 22:05:27 GMT 42.838020 5.021733 36,175 230 412 -1408
2019-09-20 22:05:24 GMT 42.842422 5.028800 36,250 230 412 -1536
2019-09-20 22:05:20 GMT 42.846085 5.034613 36,300 230 412 -1536
2019-09-20 22:05:16 GMT 42.851566 5.043379 36,450 230 410 -1536
2019-09-20 22:05:13 GMT 42.855476 5.049591 36,525 230 409 -1536
2019-09-20 22:05:10 GMT 42.858597 5.054561 36,575 230 408 -1536
2019-09-20 22:05:07 GMT 42.862381 5.060673 36,800 231 406 -1536
2019-09-20 22:05:03 GMT 42.866867 5.067891 36,800 231 406 -1536
2019-09-20 22:05:00 GMT 42.870941 5.074789 38,775 232 405 -1472
2019-09-20 22:04:57 GMT 42.874565 5.080784 36,925 232 404 -1472
2019-09-20 22:04:53 GMT 42.879318 5.088969 37,050 233 402 -1472
2019-09-20 22:04:49 GMT 42.883129 5.095760 37,125 233 401 -1472
2019-09-20 22:04:46 GMT 42.886276 5.101553 37,200 233 400 -1472
2019-09-20 22:04:42 GMT 42.891277 5.110277 37,275 233 400 -1472
2019-09-20 22:04:39 GMT 42.894516 5.116116 37,375 233 399 -1472
2019-09-20 22:04:36 GMT 42.898453 5.123206 37,475 233 399 -1472
2019-09-20 22:04:31 GMT 42.904079 5.133166 37,575 233 399 -1472
2019-09-20 22:04:28 GMT 42.906189 5.137067 37,650 233 399 -1472
2019-09-20 22:04:25 GMT 42.909622 5.143262 37,750 233 400 -1536
2019-09-20 22:04:21 GMT 42.915253 5.153418 37,825 233 401 -1536
2019-09-20 22:04:18 GMT 42.917812 5.157885 38,775 234 402 -1536
2019-09-20 22:04:14 GMT 42.924225 5.169323 38,075 234 403 -1600
2019-09-20 22:04:11 GMT 42.926563 5.173645 38,075 234 402 -1600
2019-09-20 22:04:08 GMT 42.929031 5.178092 38,775 233 409 -1600
2019-09-20 22:04:05 GMT 42.932755 5.184828 38,325 233 407 -1600
2019-09-20 22:04:02 GMT 42.935364 5.189798 38,325 233 406 -1600
2019-09-20 22:03:58 GMT 42.940853 5.199541 38,400 233 409 -1600
2019-09-20 22:03:54 GMT 42.944321 5.205923 38,475 233 409 -1600
2019-09-20 22:03:51 GMT 42.949219 5.214673 38,600 233 411 -1536
2019-09-20 22:03:47 GMT 42.953239 5.221710 38,650 233 412 -1408
2019-09-20 22:03:43 GMT 42.957779 5.229812 38,775 233 414 -1152
2019-09-20 22:03:40 GMT 42.961292 5.236293 38,875 233 416 -960
2019-09-20 22:03:37 GMT 42.964874 5.242637 38,875 233 416 -960
2019-09-20 22:03:34 GMT 42.967758 5.247824 38,925 234 415 -768
2019-09-20 22:03:31 GMT 42.976639 5.263856 38,975 233 414 -320
2019-09-20 22:03:27 GMT 42.976639 5.263856 39,000 234 415 -64
2019-09-20 22:03:24 GMT 42.980286 5.270626 39,000 234 416 0
2019-09-20 22:03:20 GMT 42.985245 5.279569 39,000 234 415 0
2019-09-20 22:03:16 GMT 42.994762 5.296849 39,000 234 415 0
2019-09-20 22:03:11 GMT 42.994762 5.296849 39,000 234 415 0
2019-09-20 22:03:05 GMT 43.003189 5.311824 39,000 234 416 0
2019-09-20 22:03:02 GMT 43.005051 5.315225 38,975 234 416 0
2019-09-20 22:02:59 GMT 43.008957 5.322493 39,000 234 416 0
2019-09-20 22:02:55 GMT 43.014633 5.332649 38,975 234 416 64
2019-09-20 22:02:51 GMT 43.018272 5.339421 38,975 234 416 0
2019-09-20 22:02:46 GMT 43.024567 5.350661 38,975 233 417 0
2019-09-20 22:02:42 GMT 43.033539 5.366885 38,975 233 417 0
2019-09-20 22:02:38 GMT 43.033539 5.366885 38,975 233 417 0
2019-09-20 22:02:35 GMT 43.039581 5.378063 38,975 233 418 0
2019-09-20 22:02:28 GMT 43.044891 5.387516 38,975 233 419 0
2019-09-20 22:02:24 GMT 43.053818 5.403677 38,975 233 419 -64
2019-09-20 22:02:21 GMT 43.053818 5.403677 39,000 233 419 -64
2019-09-20 22:02:18 GMT 43.056770 5.408739 39,000 233 419 -64
2019-09-20 22:02:15 GMT 43.064217 5.422407 39,000 233 420 0
2019-09-20 22:02:12 GMT 43.064217 5.422407 39,000 233 420 0
2019-09-20 22:02:09 GMT 43.073730 5.439382 39,000 233 421 0
2019-09-20 22:02:04 GMT 43.073730 5.439382 39,000 234 420 64
2019-09-20 22:02:00 GMT 43.077671 5.446538 39,000 233 422 0
2019-09-20 22:01:57 GMT 43.080917 5.452221 39,000 233 421 0
2019-09-20 22:01:53 GMT 43.085724 5.461121 39,000 233 421 0
2019-09-20 22:01:49 GMT 43.091125 5.470734 39,000 233 421 0
2019-09-20 22:01:42 GMT 43.098434 5.483813 39,000 233 422 -64
2019-09-20 22:01:38 GMT 43.103897 5.493483 39,000 233 422 -64
2019-09-20 22:01:32 GMT 43.110210 5.504935 39,000 233 423 0
2019-09-20 22:01:29 GMT 43.113796 5.511409 39,000 233 423 0
2019-09-20 22:01:26 GMT 43.117661 5.518472 39,000 233 423 0
2019-09-20 22:01:22 GMT 43.122314 5.526581 39,000 233 423 0
2019-09-20 22:01:19 GMT 43.126236 5.533788 39,000 233 424 64
2019-09-20 22:01:16 GMT 43.129990 5.540303 39,000 233 424 0
2019-09-20 22:01:12 GMT 43.135712 5.550395 39,000 233 424 0
2019-09-20 22:01:08 GMT 43.140335 5.558827 39,000 233 424 0
2019-09-20 22:01:05 GMT 43.143032 5.563529 39,000 233 424 -64
2019-09-20 22:01:02 GMT 43.146606 5.570004 39,000 233 424 0
2019-09-20 22:00:59 GMT 43.150433 5.576869 39,000 233 424 0
2019-09-20 22:00:55 GMT 43.154716 5.584259 39,000 233 425 0
2019-09-20 22:00:52 GMT 43.159325 5.592760 39,000 233 425 0
2019-09-20 22:00:48 GMT 43.162350 5.598254 39,000 233 425 0
2019-09-20 22:00:45 GMT 43.166885 5.606093 39,000 233 424 0
2019-09-20 22:00:41 GMT 43.172546 5.616368 38,975 234 425 64
2019-09-20 22:00:38 GMT 43.174828 5.620815 38,975 234 425 0
2019-09-20 22:00:35 GMT 43.178329 5.627427 39,000 235 424 0
2019-09-20 22:00:28 GMT 43.186092 5.642133 39,000 235 425 0
2019-09-20 22:00:25 GMT 43.189774 5.648953 39,000 235 424 0
2019-09-20 22:00:18 GMT 43.197453 5.663779 38,975 235 425 0
2019-09-20 22:00:14 GMT 43.201408 5.671496 39,000 235 424 -64
2019-09-20 22:00:08 GMT 43.211197 5.690024 39,000 235 424 0
2019-09-20 22:00:05 GMT 43.213303 5.694431 39,000 235 425 0
2019-09-20 21:59:56 GMT 43.223099 5.712954 39,000 235 425 0
2019-09-20 21:59:52 GMT 43.227524 5.721719 39,000 235 425 0
2019-09-20 21:59:46 GMT 43.234222 5.734225 38,975 235 425 0
2019-09-20 21:59:43 GMT 43.237427 5.740484 38,975 235 425 0
2019-09-20 21:59:36 GMT 43.245575 5.756389 38,975 235 425 0
2019-09-20 21:59:31 GMT 43.251389 5.767567 39,000 235 425 0
2019-09-20 21:59:26 GMT 43.256340 5.777043 39,000 235 425 0
2019-09-20 21:59:22 GMT 43.260681 5.785579 39,000 235 425 0
2019-09-20 21:59:16 GMT 43.268909 5.801370 39,000 235 425 0
2019-09-20 21:59:13 GMT 43.274590 5.812160 39,000 235 425 0
2019-09-20 21:59:06 GMT 43.279541 5.821987 39,000 235 425 0
2019-09-20 21:59:01 GMT 43.285400 5.833293 39,000 235 425 0
2019-09-20 21:58:55 GMT 43.291763 5.845493 39,000 235 425 0
2019-09-20 21:58:52 GMT 43.294647 5.851178 39,000 235 425 0
2019-09-20 21:58:49 GMT 43.298611 5.858525 38,975 235 425 0
2019-09-20 21:58:45 GMT 43.303032 5.867157 39,000 235 425 0
2019-09-20 21:58:41 GMT 43.308201 5.877097 39,000 235 425 0
2019-09-20 21:58:38 GMT 43.310944 5.882394 39,000 235 425 0
2019-09-20 21:58:34 GMT 43.320396 5.900574 38,975 235 425 0
2019-09-20 21:58:30 GMT 43.320396 5.900574 38,975 235 425 0
2019-09-20 21:58:25 GMT 43.327564 5.914568 38,975 235 425 0
2019-09-20 21:58:19 GMT 43.338455 5.935428 39,000 235 425 0
2019-09-20 21:58:14 GMT 43.338455 5.935428 38,975 235 425 0
2019-09-20 21:58:09 GMT 43.344044 5.946154 38,975 235 425 0
2019-09-20 21:58:06 GMT 43.348206 5.954334 38,975 235 426 0
2019-09-20 21:58:02 GMT 43.352463 5.962255 39,000 235 426 0
2019-09-20 21:57:59 GMT 43.355438 5.968067 38,975 235 426 0
2019-09-20 21:57:55 GMT 43.359879 5.977010 38,975 235 426 0
2019-09-20 21:57:52 GMT 43.363953 5.984930 38,975 235 426 -64
2019-09-20 21:57:49 GMT 43.366745 5.990359 39,000 235 426 -64
2019-09-20 21:57:45 GMT 43.371918 6.000324 39,000 235 427 0
2019-09-20 21:57:39 GMT 43.378586 6.013380 38,975 235 428 -64
2019-09-20 21:57:35 GMT 43.383427 6.022666 39,000 235 429 -64
2019-09-20 21:57:30 GMT 43.388718 6.032963 39,000 235 429 0
2019-09-20 21:57:27 GMT 43.393524 6.042544 39,000 235 429 0
2019-09-20 21:57:22 GMT 43.397324 6.049570 38,975 235 430 64
2019-09-20 21:57:18 GMT 43.402931 6.060595 38,975 235 430 0
2019-09-20 21:57:15 GMT 43.406754 6.068286 38,975 235 431 0
2019-09-20 21:57:08 GMT 43.414383 6.083025 39,000 235 431 0
2019-09-20 21:57:04 GMT 43.418480 6.090873 39,000 235 431 0
2019-09-20 21:57:00 GMT 43.423325 6.100606 39,000 235 432 0
2019-09-20 21:56:56 GMT 43.427372 6.108268 39,000 235 432 0
2019-09-20 21:56:52 GMT 43.433029 6.119449 39,000 235 432 0
2019-09-20 21:56:48 GMT 43.436401 6.126186 39,000 235 432 0
2019-09-20 21:56:45 GMT 43.441849 6.136911 38,975 235 432 0
2019-09-20 21:56:42 GMT 43.444130 6.141292 38,975 235 432 0
2019-09-20 21:56:38 GMT 43.447948 6.149009 39,000 235 432 0
2019-09-20 21:56:34 GMT 43.453022 6.158818 39,000 235 432 -64
2019-09-20 21:56:31 GMT 43.456467 6.165693 39,000 235 432 0
2019-09-20 21:56:28 GMT 43.460083 6.172528 39,000 235 432 0
2019-09-20 21:56:23 GMT 43.465591 6.183341 39,000 235 432 0
2019-09-20 21:56:19 GMT 43.470062 6.192300 38,975 235 432 -64
2019-09-20 21:56:15 GMT 43.477478 6.206828 39,000 235 433 0
2019-09-20 21:56:09 GMT 43.481419 6.214403 39,000 235 433 64
2019-09-20 21:56:05 GMT 43.489426 6.230033 39,000 235 432 0
2019-09-20 21:55:59 GMT 43.493336 6.237488 39,000 235 432 0
2019-09-20 21:55:56 GMT 43.496876 6.244616 39,000 235 432 0
2019-09-20 21:55:53 GMT 43.500778 6.252051 39,000 235 432 0
2019-09-20 21:55:48 GMT 43.506866 6.264187 39,000 235 432 -64
2019-09-20 21:55:45 GMT 43.508835 6.267828 39,000 235 432 0
2019-09-20 21:55:42 GMT 43.513355 6.276528 39,000 235 432 0
2019-09-20 21:55:38 GMT 43.517498 6.284899 39,000 235 432 64
2019-09-20 21:55:35 GMT 43.520691 6.291142 39,000 235 432 64
2019-09-20 21:55:32 GMT 43.524170 6.297785 39,000 235 432 0
2019-09-20 21:55:27 GMT 43.529160 6.307621 39,000 235 431 0
2019-09-20 21:55:22 GMT 43.535793 6.320670 39,000 235 431 0
2019-09-20 21:55:17 GMT 43.540970 6.330744 39,000 235 431 -64
2019-09-20 21:55:14 GMT 43.544544 6.337869 39,000 235 431 -64
2019-09-20 21:55:11 GMT 43.547653 6.343710 39,000 235 431 0
2019-09-20 21:55:05 GMT 43.554794 6.358018 39,000 236 431 0
2019-09-20 21:55:01 GMT 43.559692 6.367471 38,975 236 435 0
2019-09-20 21:54:55 GMT 43.566006 6.380114 38,975 236 435 0
2019-09-20 21:54:51 GMT 43.571136 6.390211 39,000 236 436 0
2019-09-20 21:54:43 GMT 43.580292 6.408159 39,000 236 436 0
2019-09-20 21:54:40 GMT 43.583229 6.413988 39,000 236 436 64
2019-09-20 21:54:34 GMT 43.591049 6.429160 38,975 236 438 0
2019-09-20 21:54:30 GMT 43.595612 6.438250 38,975 236 439 -64
2019-09-20 21:54:23 GMT 43.603088 6.453063 39,000 235 442 -64
2019-09-20 21:54:20 GMT 43.607063 6.460876 39,000 235 442 -64
2019-09-20 21:54:12 GMT 43.616867 6.480081 39,000 235 442 64
2019-09-20 21:54:09 GMT 43.619263 6.484876 38,975 236 442 64
2019-09-20 21:54:02 GMT 43.627781 6.501617 39,000 236 442 0
2019-09-20 21:53:59 GMT 43.631458 6.508745 39,000 236 442 0
2019-09-20 21:53:51 GMT 43.641174 6.527859 39,000 236 441 0
2019-09-20 21:53:48 GMT 43.644333 6.534374 39,000 236 441 0
2019-09-20 21:53:39 GMT 43.659119 6.563501 39,000 237 441 0
2019-09-20 21:53:31 GMT 43.664276 6.574467 39,000 240 442 0
2019-09-20 21:53:25 GMT 43.670197 6.588284 39,000 242 442 64
2019-09-20 21:53:20 GMT 43.676056 6.603422 39,000 243 443 64
2019-09-20 21:53:16 GMT 43.678383 6.609519 39,000 243 442 0
2019-09-20 21:53:13 GMT 43.681961 6.619135 39,000 243 442 0
2019-09-20 21:53:09 GMT 43.685551 6.628745 39,000 243 442 64
2019-09-20 21:53:06 GMT 43.688484 6.636789 38,975 243 441 0
2019-09-20 21:53:03 GMT 43.695007 6.653946 39,000 243 442 0
2019-09-20 21:52:59 GMT 43.695007 6.653946 39,000 243 442 0
2019-09-20 21:52:56 GMT 43.697701 6.661050 39,000 243 441 0
2019-09-20 21:52:49 GMT 43.704964 6.680734 39,000 243 440 0
2019-09-20 21:52:45 GMT 43.707710 6.687927 39,000 243 440 0
2019-09-20 21:52:38 GMT 43.714691 6.706565 39,000 243 440 0
2019-09-20 21:52:35 GMT 43.716972 6.712646 39,000 243 440 0
2019-09-20 21:52:31 GMT 43.721443 6.724679 39,000 243 440 0
2019-09-20 21:52:27 GMT 43.724377 6.732723 39,000 243 440 0
2019-09-20 21:52:24 GMT 43.727306 6.740635 39,000 243 440 0
2019-09-20 21:52:20 GMT 43.732616 6.755088 39,000 243 439 0
2019-09-20 21:52:17 GMT 43.734146 6.759019 39,000 243 439 0
2019-09-20 21:52:14 GMT 43.736572 6.765355 39,000 243 439 64
2019-09-20 21:52:07 GMT 43.742577 6.781703 39,000 243 436 0
2019-09-20 21:52:04 GMT 43.746117 6.791513 39,000 243 436 0
2019-09-20 21:51:56 GMT 43.755981 6.817719 39,000 243 434 0
2019-09-20 21:51:53 GMT 43.755981 6.817719 39,000 243 433 0
2019-09-20 21:51:46 GMT 43.762642 6.835916 39,000 243 433 -64
2019-09-20 21:51:43 GMT 43.765228 6.842949 39,000 243 432 64
2019-09-20 21:51:38 GMT 43.769951 6.855730 39,000 243 432 0
2019-09-20 21:51:35 GMT 43.772278 6.861812 39,000 243 432 0
2019-09-20 21:51:31 GMT 43.781448 6.886662 39,000 244 432 0
2019-09-20 21:51:25 GMT 43.781448 6.886662 39,000 243 431 -64
2019-09-20 21:51:21 GMT 43.785313 6.897191 39,000 243 431 -64
2019-09-20 21:51:18 GMT 43.788574 6.906121 39,000 243 431 -64
2019-09-20 21:51:15 GMT 43.790619 6.911643 39,000 243 431 0
2019-09-20 21:51:10 GMT 43.794575 6.922302 39,000 243 431 0
2019-09-20 21:51:07 GMT 43.800674 6.938978 39,000 244 429 64
2019-09-20 21:51:04 GMT 43.804047 6.948022 39,000 244 429 64
2019-09-20 21:50:56 GMT 43.808258 6.959264 39,000 244 429 64
2019-09-20 21:50:53 GMT 43.809845 6.963632 39,000 243 428 64
2019-09-20 21:50:50 GMT 43.812607 6.971208 39,000 243 426 0
2019-09-20 21:50:47 GMT 43.816223 6.981301 39,000 244 427 0
2019-09-20 21:50:44 GMT 43.818787 6.987880 39,000 243 426 0
2019-09-20 21:50:41 GMT 43.820831 6.993713 39,000 243 425 64
2019-09-20 21:50:37 GMT 43.824966 7.004870 39,000 244 425 64
2019-09-20 21:50:33 GMT 43.828419 7.014117 39,000 243 424 0
2019-09-20 21:50:29 GMT 43.835773 7.033866 39,000 243 423 0
2019-09-20 21:50:24 GMT 43.835773 7.033866 39,000 243 422 0
2019-09-20 21:50:21 GMT 43.838985 7.042498 39,000 243 422 0
2019-09-20 21:50:16 GMT 43.844711 7.057866 39,000 243 420 0
2019-09-20 21:50:11 GMT 43.848221 7.067403 39,000 243 419 0
2019-09-20 21:50:04 GMT 43.854767 7.084904 39,000 243 419 0
2019-09-20 21:50:01 GMT 43.856140 7.088673 39,000 243 417 0
2019-09-20 21:49:58 GMT 43.860401 7.100503 39,000 244 418 -64
2019-09-20 21:49:54 GMT 43.863102 7.107500 39,000 244 418 -64
2019-09-20 21:49:50 GMT 43.866852 7.118119 39,000 244 418 0
2019-09-20 21:49:45 GMT 43.870560 7.128019 39,000 244 417 0
2019-09-20 21:49:41 GMT 43.874405 7.138750 39,000 244 417 0
2019-09-20 21:49:38 GMT 43.879807 7.153377 39,000 244 417 0
2019-09-20 21:49:34 GMT 43.879807 7.153377 39,000 244 417 0
2019-09-20 21:49:31 GMT 43.883698 7.163789 39,000 244 417 0
2019-09-20 21:49:28 GMT 43.888985 7.178258 39,000 244 417 0
2019-09-20 21:49:25 GMT 43.888985 7.178258 39,000 244 417 0
2019-09-20 21:49:18 GMT 43.894245 7.192514 39,000 244 417 0
2019-09-20 21:49:13 GMT 43.902905 7.215794 39,000 244 416 0
2019-09-20 21:49:08 GMT 43.902905 7.215794 39,000 244 416 0
2019-09-20 21:49:05 GMT 43.905212 7.222617 39,000 244 416 -64
2019-09-20 21:49:02 GMT 43.908646 7.231878 39,000 244 415 -64
2019-09-20 21:48:59 GMT 43.910889 7.237691 39,000 244 415 64
2019-09-20 21:48:55 GMT 43.914230 7.246889 39,000 244 415 64
2019-09-20 21:48:52 GMT 43.916885 7.253979 39,000 244 415 64
2019-09-20 21:48:47 GMT 43.921097 7.265923 39,000 244 416 0
2019-09-20 21:48:43 GMT 43.925400 7.277804 39,000 244 415 0
2019-09-20 21:48:39 GMT 43.928833 7.286878 39,000 244 415 0
2019-09-20 21:48:35 GMT 43.931767 7.294791 39,000 244 415 0
2019-09-20 21:48:32 GMT 43.934830 7.303225 39,000 244 415 0
2019-09-20 21:48:28 GMT 43.937851 7.311337 39,000 244 415 0
2019-09-20 21:48:25 GMT 43.940598 7.319258 39,000 244 415 0
2019-09-20 21:48:21 GMT 43.943848 7.328009 39,000 244 415 0
2019-09-20 21:48:18 GMT 43.947269 7.337494 39,000 244 415 0
2019-09-20 21:48:14 GMT 43.950108 7.344884 39,000 244 415 0
2019-09-20 21:48:11 GMT 43.952179 7.350556 39,000 244 415 -64
2019-09-20 21:48:07 GMT 43.955612 7.360009 39,000 244 415 0
2019-09-20 21:48:03 GMT 43.959045 7.369463 39,000 243 415 0
2019-09-20 21:48:00 GMT 43.961426 7.375978 39,000 243 415 0
2019-09-20 21:47:56 GMT 43.965981 7.387259 39,000 241 415 0
2019-09-20 21:47:53 GMT 43.969299 7.395587 39,000 239 415 0
2019-09-20 21:47:50 GMT 43.971130 7.399611 39,000 236 416 0
2019-09-20 21:47:45 GMT 43.977482 7.413483 39,000 237 416 0
2019-09-20 21:47:39 GMT 43.983307 7.424969 39,000 234 416 0
2019-09-20 21:47:36 GMT 43.986557 7.431165 39,000 233 417 0
2019-09-20 21:47:33 GMT 43.990585 7.438383 39,000 230 417 0
2019-09-20 21:47:29 GMT 43.995209 7.446112 39,000 230 417 0
2019-09-20 21:47:25 GMT 43.999649 7.453138 39,000 229 417 0
2019-09-20 21:47:22 GMT 44.003357 7.459142 39,000 229 417 0
2019-09-20 21:47:19 GMT 44.008064 7.466714 39,000 229 417 0
2019-09-20 21:47:16 GMT 44.012859 7.474104 39,000 229 417 0
2019-09-20 21:47:12 GMT 44.016350 7.479531 39,000 229 417 0
2019-09-20 21:47:08 GMT 44.021099 7.487313 39,000 229 418 0
2019-09-20 21:47:05 GMT 44.025570 7.494311 39,000 229 417 0
2019-09-20 21:47:02 GMT 44.029358 7.500532 39,000 229 417 0
2019-09-20 21:46:58 GMT 44.034256 7.508069 39,000 229 418 0
2019-09-20 21:46:55 GMT 44.038742 7.515159 39,000 229 418 0
2019-09-20 21:46:52 GMT 44.042233 7.520796 39,000 229 418 0
2019-09-20 21:46:48 GMT 44.046844 7.528126 39,000 229 417 0
2019-09-20 21:46:45 GMT 44.051971 7.536046 39,000 229 417 0
2019-09-20 21:46:42 GMT 44.055782 7.542376 39,000 229 417 0
2019-09-20 21:46:38 GMT 44.059925 7.549046 39,000 230 418 0
2019-09-20 21:46:35 GMT 44.063461 7.554605 39,000 230 418 0
2019-09-20 21:46:31 GMT 44.068722 7.562975 39,000 231 418 64
2019-09-20 21:46:27 GMT 44.073807 7.571241 39,000 230 418 0
2019-09-20 21:46:24 GMT 44.077755 7.577427 39,000 230 418 0
2019-09-20 21:46:20 GMT 44.082783 7.585602 39,000 229 418 0
2019-09-20 21:46:17 GMT 44.087250 7.592664 39,000 230 419 0
2019-09-20 21:46:13 GMT 44.090973 7.598877 39,000 231 418 64
2019-09-20 21:46:09 GMT 44.095551 7.606819 39,000 233 418 0
2019-09-20 21:46:06 GMT 44.099728 7.613983 39,000 234 418 0
2019-09-20 21:46:03 GMT 44.103172 7.620457 39,000 234 418 0
2019-09-20 21:45:59 GMT 44.107269 7.628435 39,000 235 417 0
2019-09-20 21:45:56 GMT 44.111801 7.637798 39,000 237 417 0
2019-09-20 21:45:51 GMT 44.116699 7.648464 39,000 238 417 0
2019-09-20 21:45:48 GMT 44.119278 7.654332 39,000 239 417 0
2019-09-20 21:45:44 GMT 44.122631 7.662179 39,000 241 418 0
2019-09-20 21:45:40 GMT 44.126911 7.673165 39,000 243 417 0
2019-09-20 21:45:37 GMT 44.129238 7.678920 39,000 243 417 0
2019-09-20 21:45:34 GMT 44.132267 7.687552 39,000 245 418 0
2019-09-20 21:45:31 GMT 44.134827 7.694901 39,000 245 418 0
2019-09-20 21:45:28 GMT 44.137947 7.703836 39,000 245 418 0
2019-09-20 21:45:22 GMT 44.142136 7.716653 39,000 245 418 0
2019-09-20 21:45:18 GMT 44.145218 7.725560 39,000 245 418 0
2019-09-20 21:45:15 GMT 44.147873 7.733034 39,000 245 418 0
2019-09-20 21:45:12 GMT 44.151073 7.742549 39,000 245 419 0
2019-09-20 21:45:09 GMT 44.152771 7.747725 39,000 245 419 0
2019-09-20 21:45:06 GMT 44.154751 7.753601 39,000 245 419 0
2019-09-20 21:45:01 GMT 44.160049 7.768739 39,000 245 419 0
2019-09-20 21:44:58 GMT 44.161453 7.773023 39,000 245 420 0
2019-09-20 21:44:54 GMT 44.167694 7.791661 39,000 245 420 0
2019-09-20 21:44:51 GMT 44.167694 7.791661 39,000 245 420 0
2019-09-20 21:44:48 GMT 44.170300 7.799050 39,000 245 420 0
2019-09-20 21:44:45 GMT 44.172272 7.805147 39,000 245 420 0
2019-09-20 21:44:42 GMT 44.175018 7.812876 39,000 245 420 0
2019-09-20 21:44:39 GMT 44.177841 7.821677 39,000 245 420 0
2019-09-20 21:44:36 GMT 44.180145 7.828142 39,000 245 420 0
2019-09-20 21:44:33 GMT 44.182125 7.834233 39,000 245 420 -64
2019-09-20 21:44:29 GMT 44.185570 7.844500 39,000 245 420 -64
2019-09-20 21:44:26 GMT 44.189247 7.855617 39,000 246 421 0
2019-09-20 21:44:23 GMT 44.193375 7.867808 39,000 246 421 0
2019-09-20 21:44:20 GMT 44.193375 7.867808 39,000 245 421 0
2019-09-20 21:44:17 GMT 44.195618 7.874451 39,000 245 424 0
2019-09-20 21:44:14 GMT 44.197586 7.880402 39,000 245 421 0
2019-09-20 21:44:11 GMT 44.201721 7.892270 39,000 245 422 0
2019-09-20 21:44:08 GMT 44.204098 7.899773 39,000 245 422 0
2019-09-20 21:44:03 GMT 44.207199 7.908848 39,000 245 422 0
2019-09-20 21:44:00 GMT 44.210381 7.918061 39,000 245 422 0
2019-09-20 21:43:56 GMT 44.212784 7.925459 39,000 245 423 0
2019-09-20 21:43:53 GMT 44.215595 7.933603 39,000 245 423 0
2019-09-20 21:43:50 GMT 44.217590 7.939715 39,000 245 423 0
2019-09-20 21:43:47 GMT 44.220474 7.948281 39,000 245 423 0
2019-09-20 21:43:43 GMT 44.224766 7.960801 39,000 245 423 0
2019-09-20 21:43:40 GMT 44.226486 7.965959 39,000 245 423 0
2019-09-20 21:43:37 GMT 44.229095 7.973529 39,000 245 423 0
2019-09-20 21:43:34 GMT 44.231735 7.981633 39,000 245 423 0
2019-09-20 21:43:30 GMT 44.234207 7.988826 39,000 245 423 0
2019-09-20 21:43:27 GMT 44.237228 7.997655 39,000 245 423 0
2019-09-20 21:43:23 GMT 44.240406 8.007358 39,000 245 424 0
2019-09-20 21:43:20 GMT 44.243061 8.015129 39,000 245 424 0
2019-09-20 21:43:16 GMT 44.246155 8.024205 39,000 246 423 0
2019-09-20 21:43:13 GMT 44.248810 8.032248 39,000 246 423 -64
2019-09-20 21:43:10 GMT 44.251740 8.041011 39,000 246 423 0
2019-09-20 21:43:07 GMT 44.254303 8.048335 39,000 246 423 0
2019-09-20 21:43:02 GMT 44.257736 8.058668 39,000 246 424 0
2019-09-20 21:42:59 GMT 44.260983 8.068587 39,000 245 425 0
2019-09-20 21:42:55 GMT 44.263592 8.076157 39,000 245 425 0
2019-09-20 21:42:52 GMT 44.265976 8.083714 39,000 245 425 0
2019-09-20 21:42:48 GMT 44.269081 8.092837 39,000 245 425 0
2019-09-20 21:42:45 GMT 44.271832 8.101077 39,000 245 425 0
2019-09-20 21:42:41 GMT 44.274811 8.110054 39,000 245 424 0
2019-09-20 21:42:38 GMT 44.277740 8.118635 39,000 245 424 0
2019-09-20 21:42:34 GMT 44.281605 8.129883 39,000 245 424 0
2019-09-20 21:42:31 GMT 44.283325 8.135049 39,000 245 424 0
2019-09-20 21:42:27 GMT 44.289413 8.153490 39,000 245 424 64
2019-09-20 21:42:24 GMT 44.289413 8.153490 39,000 245 424 0
2019-09-20 21:42:21 GMT 44.291893 8.160832 39,000 245 424 0
2019-09-20 21:42:17 GMT 44.295181 8.170231 39,000 245 424 0
2019-09-20 21:42:13 GMT 44.298615 8.180564 39,000 245 424 0
2019-09-20 21:42:10 GMT 44.301018 8.187561 39,000 245 423 0
2019-09-20 21:42:05 GMT 44.305534 8.201227 39,000 245 423 0
2019-09-20 21:41:59 GMT 44.310886 8.217037 39,000 245 422 0
2019-09-20 21:41:53 GMT 44.315414 8.230525 39,000 245 422 0
2019-09-20 21:41:50 GMT 44.317406 8.236598 39,000 245 421 0
2019-09-20 21:41:47 GMT 44.320038 8.244389 39,000 245 421 0
2019-09-20 21:41:44 GMT 44.322712 8.252005 39,000 245 421 0
2019-09-20 21:41:40 GMT 44.328918 8.270939 39,000 245 422 0
2019-09-20 21:41:37 GMT 44.328918 8.270939 39,000 245 422 64
2019-09-20 21:41:34 GMT 44.330719 8.276189 38,975 245 422 64
2019-09-20 21:41:31 GMT 44.333279 8.283691 39,000 245 422 -64
2019-09-20 21:41:28 GMT 44.335831 8.291277 39,000 245 422 -64
2019-09-20 21:41:24 GMT 44.339981 8.303453 39,000 246 423 0
2019-09-20 21:41:20 GMT 44.342468 8.311223 39,000 246 423 0
2019-09-20 21:41:17 GMT 44.344776 8.318057 39,000 246 423 0
2019-09-20 21:41:14 GMT 44.347961 8.327898 39,000 246 424 0
2019-09-20 21:41:11 GMT 44.349758 8.333130 39,000 246 424 0
2019-09-20 21:41:08 GMT 44.352402 8.340977 39,000 246 424 0
2019-09-20 21:41:05 GMT 44.357391 8.356040 39,000 246 424 0
2019-09-20 21:41:02 GMT 44.357391 8.356040 39,000 246 424 0
2019-09-20 21:40:59 GMT 44.360466 8.365151 39,000 246 424 0
2019-09-20 21:40:53 GMT 44.365028 8.379152 39,000 246 425 0
2019-09-20 21:40:50 GMT 44.366657 8.383707 39,000 246 425 0
2019-09-20 21:40:46 GMT 44.370193 8.394627 39,000 246 425 0
2019-09-20 21:40:42 GMT 44.374290 8.406953 39,000 246 425 0
2019-09-20 21:40:36 GMT 44.378483 8.419547 39,000 246 425 0
2019-09-20 21:40:32 GMT 44.382202 8.430961 39,000 246 426 0
2019-09-20 21:40:29 GMT 44.385044 8.439108 39,000 246 426 64
2019-09-20 21:40:26 GMT 44.387192 8.445740 39,000 246 426 64
2019-09-20 21:40:22 GMT 44.390633 8.456056 39,000 246 427 0
2019-09-20 21:40:19 GMT 44.393005 8.463291 39,000 246 427 0
2019-09-20 21:40:16 GMT 44.395477 8.470721 38,975 246 427 0
2019-09-20 21:40:13 GMT 44.398773 8.480857 38,975 246 428 -64
2019-09-20 21:40:10 GMT 44.401245 8.488181 39,000 246 429 -64
2019-09-20 21:40:07 GMT 44.402985 8.493282 39,000 246 429 0
2019-09-20 21:40:04 GMT 44.404690 8.498595 39,000 246 429 -64
2019-09-20 21:40:01 GMT 44.408134 8.508576 39,000 246 429 0
2019-09-20 21:39:58 GMT 44.412651 8.522376 39,000 246 429 0
2019-09-20 21:39:55 GMT 44.412651 8.522376 39,000 246 429 0
2019-09-20 21:39:51 GMT 44.415848 8.531930 39,000 246 429 0
2019-09-20 21:39:48 GMT 44.418915 8.541543 39,000 246 429 0
2019-09-20 21:39:45 GMT 44.420891 8.547430 39,000 246 430 0
2019-09-20 21:39:42 GMT 44.423996 8.556715 39,000 246 430 0
2019-09-20 21:39:39 GMT 44.426239 8.563581 39,000 246 430 0
2019-09-20 21:39:36 GMT 44.428104 8.569068 39,000 246 430 0
2019-09-20 21:39:33 GMT 44.431046 8.578033 39,000 246 430 0
2019-09-20 21:39:30 GMT 44.436172 8.593794 39,000 246 431 0
2019-09-20 21:39:27 GMT 44.436172 8.593794 39,000 246 431 0
2019-09-20 21:39:24 GMT 44.438671 8.601290 39,000 246 431 0
2019-09-20 21:39:19 GMT 44.443039 8.614393 39,000 246 431 0
2019-09-20 21:39:16 GMT 44.445602 8.622110 39,000 246 432 0
2019-09-20 21:39:13 GMT 44.448029 8.629368 39,000 246 432 0
2019-09-20 21:39:09 GMT 44.451103 8.638603 39,000 246 432 0
2019-09-20 21:39:06 GMT 44.453709 8.646843 39,000 246 433 0
2019-09-20 21:39:02 GMT 44.457481 8.658164 39,000 246 433 0
2019-09-20 21:38:59 GMT 44.459976 8.665662 39,000 246 433 0
2019-09-20 21:38:54 GMT 44.464005 8.678088 39,000 246 434 -64
2019-09-20 21:38:51 GMT 44.466751 8.686327 39,000 246 434 -64
2019-09-20 21:38:48 GMT 44.470688 8.698491 39,000 246 436 0
2019-09-20 21:38:42 GMT 44.474052 8.708876 39,000 246 435 0
2019-09-20 21:38:39 GMT 44.476089 8.715101 39,000 246 435 0
2019-09-20 21:38:36 GMT 44.478653 8.722818 39,000 246 435 0
2019-09-20 21:38:29 GMT 44.484669 8.741165 39,000 246 435 0
2019-09-20 21:38:26 GMT 44.487183 8.748668 39,000 246 435 0
2019-09-20 21:38:21 GMT 44.491791 8.762708 39,000 246 435 0
2019-09-20 21:38:18 GMT 44.494034 8.769902 39,000 246 435 0
2019-09-20 21:38:15 GMT 44.495838 8.775129 39,000 246 436 0
2019-09-20 21:38:11 GMT 44.500214 8.788474 39,000 246 436 -64
2019-09-20 21:38:08 GMT 44.502171 8.794891 39,000 246 437 64
2019-09-20 21:38:05 GMT 44.505428 8.804671 39,000 246 436 0
2019-09-20 21:38:00 GMT 44.509140 8.815940 39,000 246 437 0
2019-09-20 21:37:57 GMT 44.511200 8.822087 39,000 246 437 0
2019-09-20 21:37:54 GMT 44.513351 8.828888 39,000 246 437 -64
2019-09-20 21:37:48 GMT 44.522598 8.856877 39,000 246 437 -64
2019-09-20 21:37:44 GMT 44.522598 8.856877 39,000 246 435 0
2019-09-20 21:37:38 GMT 44.529636 8.878494 39,000 246 437 64
2019-09-20 21:37:35 GMT 44.532120 8.886108 39,000 246 437 64
2019-09-20 21:37:32 GMT 44.532120 8.886108 39,000 246 437 0
2019-09-20 21:37:28 GMT 44.536606 8.899384 39,000 246 437 0
2019-09-20 21:37:25 GMT 44.538155 8.904352 39,000 246 437 0
2019-09-20 21:37:18 GMT 44.545120 8.925541 39,000 246 438 0
2019-09-20 21:37:15 GMT 44.546906 8.931100 39,000 246 438 0
2019-09-20 21:37:12 GMT 44.549469 8.938817 39,000 246 438 0
2019-09-20 21:37:07 GMT 44.553425 8.951379 39,000 246 438 0
2019-09-20 21:37:04 GMT 44.555740 8.957977 39,000 246 438 0
2019-09-20 21:37:01 GMT 44.558075 8.965302 39,000 246 438 0
2019-09-20 21:36:58 GMT 44.564411 8.985209 39,000 246 438 -64
2019-09-20 21:36:54 GMT 44.564411 8.985209 39,000 246 438 -64
2019-09-20 21:36:51 GMT 44.566544 8.991459 39,000 246 439 0
2019-09-20 21:36:48 GMT 44.569111 8.999343 39,000 246 439 -64
2019-09-20 21:36:45 GMT 44.571442 9.006631 39,000 246 439 0
2019-09-20 21:36:41 GMT 44.575150 9.017879 39,000 246 439 0
2019-09-20 21:36:36 GMT 44.579361 9.031350 39,000 246 439 0
2019-09-20 21:36:33 GMT 44.583710 9.044822 39,000 246 438 0
2019-09-20 21:36:26 GMT 44.587692 9.056920 39,000 246 439 0
2019-09-20 21:36:23 GMT 44.590946 9.066668 39,000 246 439 0
2019-09-20 21:36:20 GMT 44.593002 9.073334 39,000 246 438 0
2019-09-20 21:36:15 GMT 44.597900 9.088375 39,000 246 439 0
2019-09-20 21:36:12 GMT 44.599697 9.093598 39,000 246 438 0
2019-09-20 21:36:09 GMT 44.601654 9.099493 39,000 246 438 0
2019-09-20 21:36:04 GMT 44.606461 9.114794 39,000 246 438 0
2019-09-20 21:36:00 GMT 44.609657 9.124480 39,000 246 438 0
2019-09-20 21:35:55 GMT 44.614014 9.137944 39,000 246 438 0
2019-09-20 21:35:52 GMT 44.615898 9.143774 39,000 246 439 0
2019-09-20 21:35:49 GMT 44.618637 9.152069 39,000 246 439 0
2019-09-20 21:35:45 GMT 44.622181 9.162933 39,000 246 439 0
2019-09-20 21:35:42 GMT 44.624817 9.171099 39,000 246 439 0
2019-09-20 21:35:38 GMT 44.628002 9.181154 39,000 246 438 0
2019-09-20 21:35:33 GMT 44.631958 9.193681 39,000 246 438 0
2019-09-20 21:35:30 GMT 44.634796 9.202162 39,000 246 438 0
2019-09-20 21:35:27 GMT 44.637360 9.210428 39,000 246 437 0
2019-09-20 21:35:24 GMT 44.639359 9.216323 39,000 246 437 0
2019-09-20 21:35:21 GMT 44.642338 9.225702 39,000 246 437 0
2019-09-20 21:35:18 GMT 44.644318 9.231589 39,000 246 437 0
2019-09-20 21:35:13 GMT 44.649136 9.246871 39,000 246 436 0
2019-09-20 21:35:10 GMT 44.651184 9.253562 39,000 246 436 0
2019-09-20 21:35:07 GMT 44.653656 9.260690 39,000 246 436 0
2019-09-20 21:35:04 GMT 44.656357 9.269191 39,000 246 435 0
2019-09-20 21:35:00 GMT 44.659515 9.279227 39,000 246 435 0
2019-09-20 21:34:56 GMT 44.667160 9.302870 39,000 246 435 0
2019-09-20 21:34:52 GMT 44.667160 9.302870 39,000 246 435 0
2019-09-20 21:34:47 GMT 44.669998 9.312025 39,000 246 434 0
2019-09-20 21:34:44 GMT 44.673431 9.322488 39,000 246 434 0
2019-09-20 21:34:41 GMT 44.675064 9.327594 39,000 246 434 0
2019-09-20 21:34:38 GMT 44.677532 9.335565 39,000 246 432 0
2019-09-20 21:34:34 GMT 44.681210 9.346820 39,000 246 433 0
2019-09-20 21:34:30 GMT 44.684830 9.358324 39,000 246 432 64
2019-09-20 21:34:26 GMT 44.687309 9.366247 39,000 246 432 0
2019-09-20 21:34:23 GMT 44.690140 9.374608 39,000 246 431 0
2019-09-20 21:34:19 GMT 44.692661 9.382592 39,000 246 431 0
2019-09-20 21:34:16 GMT 44.695549 9.391837 39,000 246 431 0
2019-09-20 21:34:13 GMT 44.698334 9.399915 39,000 246 431 0
2019-09-20 21:34:07 GMT 44.703278 9.415350 39,000 246 431 0
2019-09-20 21:34:03 GMT 44.707233 9.427743 39,000 246 431 0
2019-09-20 21:33:58 GMT 44.710648 9.438368 39,000 246 431 0
2019-09-20 21:33:55 GMT 44.712799 9.445299 39,000 246 430 64
2019-09-20 21:33:52 GMT 44.715500 9.453670 39,000 246 430 64
2019-09-20 21:33:48 GMT 44.718201 9.461910 39,000 246 431 0
2019-09-20 21:33:45 GMT 44.721313 9.471327 39,000 246 431 0
2019-09-20 21:33:42 GMT 44.727577 9.490982 39,000 246 431 -64
2019-09-20 21:33:37 GMT 44.727577 9.490982 38,975 246 431 0
2019-09-20 21:33:34 GMT 44.730743 9.500896 38,975 246 431 -64
2019-09-20 21:33:31 GMT 44.737259 9.521462 39,000 246 431 0
2019-09-20 21:33:25 GMT 44.737259 9.521462 39,000 246 431 64
2019-09-20 21:33:22 GMT 44.740612 9.531644 38,975 246 431 0
2019-09-20 21:33:18 GMT 44.743195 9.539926 38,975 246 431 0
2019-09-20 21:33:15 GMT 44.745590 9.547320 38,975 246 432 0
2019-09-20 21:33:11 GMT 44.748688 9.556536 38,975 246 431 0
2019-09-20 21:33:08 GMT 44.750946 9.563934 39,000 246 431 0
2019-09-20 21:33:05 GMT 44.754364 9.574585 38,975 246 431 0
2019-09-20 21:33:01 GMT 44.757790 9.585236 39,000 246 431 0
2019-09-20 21:32:58 GMT 44.759491 9.590868 39,000 246 431 -64
2019-09-20 21:32:55 GMT 44.762512 9.600089 39,000 246 431 -64
2019-09-20 21:32:52 GMT 44.764160 9.605386 39,000 246 431 0
2019-09-20 21:32:49 GMT 44.766636 9.612769 39,000 246 431 0
2019-09-20 21:32:46 GMT 44.769287 9.621612 38,975 246 434 0
2019-09-20 21:32:40 GMT 44.774689 9.638672 38,975 247 434 0
2019-09-20 21:32:37 GMT 44.776505 9.644254 38,975 247 435 0
2019-09-20 21:32:34 GMT 44.779678 9.654301 38,975 247 435 0
2019-09-20 21:32:31 GMT 44.781372 9.659794 38,975 246 436 0
2019-09-20 21:32:27 GMT 44.784138 9.668371 38,975 246 440 0
2019-09-20 21:32:23 GMT 44.788788 9.683010 38,975 246 440 0
2019-09-20 21:32:20 GMT 44.790562 9.688535 39,000 247 441 0
2019-09-20 21:32:17 GMT 44.793217 9.696908 39,000 247 441 0
2019-09-20 21:32:14 GMT 44.795197 9.703347 38,975 247 442 -64
2019-09-20 21:32:11 GMT 44.798149 9.712584 38,975 247 444 0
2019-09-20 21:32:08 GMT 44.803299 9.728917 39,000 247 445 0
2019-09-20 21:32:05 GMT 44.803299 9.728917 38,975 247 445 0
2019-09-20 21:32:01 GMT 44.806297 9.738576 39,000 247 445 0
2019-09-20 21:31:58 GMT 44.808437 9.745007 39,000 247 446 0
2019-09-20 21:31:55 GMT 44.812225 9.757363 39,000 247 445 0
2019-09-20 21:31:51 GMT 44.816677 9.771267 39,000 247 446 64
2019-09-20 21:31:45 GMT 44.819504 9.780513 39,000 247 446 0
2019-09-20 21:31:42 GMT 44.822617 9.790584 39,000 247 448 0
2019-09-20 21:31:39 GMT 44.825317 9.798824 39,000 247 448 0
2019-09-20 21:31:35 GMT 44.830036 9.813873 39,000 247 447 0
2019-09-20 21:31:28 GMT 44.833668 9.825730 39,000 247 447 0
2019-09-20 21:31:25 GMT 44.836136 9.833702 39,000 247 447 0
2019-09-20 21:31:21 GMT 44.839489 9.844085 39,000 247 447 0
2019-09-20 21:31:18 GMT 44.842094 9.852124 39,000 247 447 0
2019-09-20 21:31:15 GMT 44.845596 9.863238 39,000 247 447 0
2019-09-20 21:31:12 GMT 44.847656 9.869843 39,000 247 447 0
2019-09-20 21:31:08 GMT 44.850658 9.879255 39,000 247 446 0
2019-09-20 21:31:05 GMT 44.853127 9.887427 39,000 246 446 0
2019-09-20 21:31:02 GMT 44.856480 9.897945 38,975 246 446 0
2019-09-20 21:30:58 GMT 44.859421 9.907248 39,000 246 446 0
2019-09-20 21:30:55 GMT 44.861553 9.913888 39,000 246 446 0
2019-09-20 21:30:52 GMT 44.863880 9.921123 39,000 246 446 0
2019-09-20 21:30:49 GMT 44.866104 9.928371 39,000 246 446 0
2019-09-20 21:30:46 GMT 44.868675 9.936464 39,000 246 446 0
2019-09-20 21:30:42 GMT 44.871937 9.946579 39,000 247 444 0
2019-09-20 21:30:39 GMT 44.874962 9.956293 39,000 247 445 0
2019-09-20 21:30:36 GMT 44.877090 9.962703 39,000 247 445 0
2019-09-20 21:30:33 GMT 44.880360 9.973308 39,000 247 445 0
2019-09-20 21:30:29 GMT 44.884037 9.985098 39,000 247 445 0
2019-09-20 21:30:25 GMT 44.886520 9.992719 39,000 247 445 0
2019-09-20 21:30:21 GMT 44.890556 10.005731 39,000 247 445 -64
2019-09-20 21:30:18 GMT 44.892380 10.011815 39,000 247 445 0
2019-09-20 21:30:15 GMT 44.895306 10.021206 39,000 247 444 0
2019-09-20 21:30:12 GMT 44.897678 10.028776 39,000 247 444 0
2019-09-20 21:30:08 GMT 44.899933 10.036011 39,000 247 444 0
2019-09-20 21:30:05 GMT 44.903030 10.045791 38,975 247 444 0
2019-09-20 21:30:02 GMT 44.906342 10.056545 38,975 247 444 0
2019-09-20 21:29:58 GMT 44.909042 10.064654 39,000 247 443 0
2019-09-20 21:29:55 GMT 44.911423 10.072763 39,000 247 443 0
2019-09-20 21:29:52 GMT 44.913986 10.080806 39,000 247 443 0
2019-09-20 21:29:49 GMT 44.916485 10.088598 39,000 247 443 0
2019-09-20 21:29:46 GMT 44.919846 10.099313 38,975 247 443 0
2019-09-20 21:29:40 GMT 44.924492 10.114121 39,000 247 443 0
2019-09-20 21:29:37 GMT 44.926216 10.119614 38,975 247 443 0
2019-09-20 21:29:34 GMT 44.928589 10.127302 39,000 247 443 0
2019-09-20 21:29:29 GMT 44.933475 10.143529 39,000 247 443 0
2019-09-20 21:29:25 GMT 44.936050 10.151629 39,000 247 443 0
2019-09-20 21:29:22 GMT 44.938202 10.158561 38,975 247 443 0
2019-09-20 21:29:19 GMT 44.941544 10.168958 39,000 247 443 0
2019-09-20 21:29:16 GMT 44.943512 10.175367 39,000 247 443 0
2019-09-20 21:29:13 GMT 44.949188 10.193939 39,000 247 442 0
2019-09-20 21:29:10 GMT 44.949188 10.193939 39,000 247 442 0
2019-09-20 21:29:07 GMT 44.950974 10.199367 39,000 247 442 0
2019-09-20 21:29:04 GMT 44.953217 10.206567 39,000 247 442 0
2019-09-20 21:29:01 GMT 44.955368 10.213492 39,000 247 442 0
2019-09-20 21:28:57 GMT 44.958614 10.223984 39,000 247 442 0
2019-09-20 21:28:54 GMT 44.961731 10.234092 39,000 247 443 0
2019-09-20 21:28:51 GMT 44.963783 10.240799 39,000 247 442 0
2019-09-20 21:28:47 GMT 44.967041 10.250914 39,000 247 442 0
2019-09-20 21:28:44 GMT 44.970299 10.261565 39,000 247 441 0
2019-09-20 21:28:41 GMT 44.972305 10.267966 39,000 247 442 0
2019-09-20 21:28:36 GMT 44.976059 10.280326 39,000 247 441 0
2019-09-20 21:28:33 GMT 44.978725 10.289031 39,000 247 442 0
2019-09-20 21:28:30 GMT 44.981232 10.297328 38,975 247 442 64
2019-09-20 21:28:25 GMT 44.985764 10.311323 38,975 247 442 0
2019-09-20 21:28:22 GMT 44.987549 10.317601 38,975 247 442 0
2019-09-20 21:28:19 GMT 44.990158 10.325841 38,975 247 442 0
2019-09-20 21:28:16 GMT 44.993546 10.336696 39,000 247 442 0
2019-09-20 21:28:11 GMT 44.996834 10.347111 39,000 247 442 0
2019-09-20 21:28:07 GMT 45.000000 10.357830 39,000 247 442 -64
2019-09-20 21:28:04 GMT 45.004990 10.373513 39,000 247 442 0
2019-09-20 21:27:58 GMT 45.007217 10.381209 39,000 247 442 0
2019-09-20 21:27:55 GMT 45.009705 10.389012 39,000 247 442 0
2019-09-20 21:27:52 GMT 45.012009 10.396818 39,000 247 442 -64
2019-09-20 21:27:48 GMT 45.017944 10.415628 39,000 247 443 64
2019-09-20 21:27:45 GMT 45.017944 10.415628 39,000 247 443 64
2019-09-20 21:27:42 GMT 45.020874 10.425371 38,975 247 443 0
2019-09-20 21:27:39 GMT 45.022671 10.431184 39,000 247 443 0
2019-09-20 21:27:36 GMT 45.024902 10.438712 39,000 247 443 0
2019-09-20 21:27:33 GMT 45.028152 10.449371 39,000 247 443 0
2019-09-20 21:27:26 GMT 45.033554 10.466636 38,975 247 443 0
2019-09-20 21:27:23 GMT 45.036118 10.475529 38,975 247 443 0
2019-09-20 21:27:17 GMT 45.040592 10.489934 38,975 247 443 0
2019-09-20 21:27:13 GMT 45.044365 10.502327 38,975 247 443 0
2019-09-20 21:27:07 GMT 45.048569 10.515943 38,975 247 444 64
2019-09-20 21:27:04 GMT 45.050648 10.522290 38,975 247 444 0
2019-09-20 21:27:01 GMT 45.053925 10.532946 38,975 247 444 0
2019-09-20 21:26:58 GMT 45.055443 10.538434 38,975 247 444 0
2019-09-20 21:26:54 GMT 45.058983 10.549689 39,000 247 444 0
2019-09-20 21:26:51 GMT 45.061798 10.558842 38,975 247 444 0
2019-09-20 21:26:48 GMT 45.063858 10.565709 38,975 247 444 0
2019-09-20 21:26:45 GMT 45.066010 10.573202 39,000 247 444 0
2019-09-20 21:26:42 GMT 45.068851 10.582380 39,000 247 444 0
2019-09-20 21:26:39 GMT 45.071598 10.591289 39,000 247 444 0
2019-09-20 21:26:33 GMT 45.075974 10.605692 39,000 247 444 0
2019-09-20 21:26:30 GMT 45.078907 10.614937 39,000 247 444 0
2019-09-20 21:26:27 GMT 45.080956 10.621770 39,000 247 444 0
2019-09-20 21:26:22 GMT 45.084824 10.634373 39,000 247 445 0
2019-09-20 21:26:19 GMT 45.087662 10.643398 39,000 247 445 0
2019-09-20 21:26:15 GMT 45.091431 10.655934 39,000 247 445 0
2019-09-20 21:26:12 GMT 45.092880 10.660858 39,000 247 445 0
2019-09-20 21:26:09 GMT 45.096039 10.671208 39,000 247 445 0
2019-09-20 21:26:06 GMT 45.097778 10.676880 39,000 247 445 0
2019-09-20 21:26:03 GMT 45.101719 10.690099 39,000 247 445 0
2019-09-20 21:25:57 GMT 45.105068 10.700818 38,975 247 445 0
2019-09-20 21:25:53 GMT 45.108582 10.712782 38,975 247 445 0
2019-09-20 21:25:50 GMT 45.113571 10.728869 38,975 247 445 0
2019-09-20 21:25:44 GMT 45.116150 10.737528 39,000 247 445 0
2019-09-20 21:25:41 GMT 45.118790 10.746133 39,000 247 445 0
2019-09-20 21:25:38 GMT 45.121445 10.754634 39,000 247 445 0
2019-09-20 21:25:35 GMT 45.123322 10.761043 39,000 247 445 0
2019-09-20 21:25:32 GMT 45.125832 10.769348 39,000 247 445 0
2019-09-20 21:25:29 GMT 45.128586 10.778242 39,000 247 445 0
2019-09-20 21:25:26 GMT 45.131424 10.787463 39,000 247 445 0
2019-09-20 21:25:23 GMT 45.133465 10.794000 39,000 247 445 64
2019-09-20 21:25:20 GMT 45.135792 10.801771 38,975 247 445 64
2019-09-20 21:25:17 GMT 45.140167 10.816107 39,000 247 446 -64
2019-09-20 21:25:11 GMT 45.143009 10.825285 39,000 247 446 -64
2019-09-20 21:25:08 GMT 45.146667 10.837032 39,000 247 446 -64
2019-09-20 21:25:05 GMT 45.148129 10.841965 39,000 247 446 0
2019-09-20 21:25:01 GMT 45.152084 10.854626 39,000 247 445 0
2019-09-20 21:24:58 GMT 45.153484 10.858914 39,000 247 446 0
2019-09-20 21:24:55 GMT 45.155869 10.866656 39,000 247 446 0
2019-09-20 21:24:52 GMT 45.159115 10.877336 39,000 247 446 0
2019-09-20 21:24:49 GMT 45.161720 10.885910 39,000 247 445 0
2019-09-20 21:24:46 GMT 45.163773 10.892743 39,000 247 445 0
2019-09-20 21:24:40 GMT 45.168640 10.908443 39,000 247 446 0
2019-09-20 21:24:37 GMT 45.170975 10.916290 39,000 247 445 0
2019-09-20 21:24:34 GMT 45.173904 10.925707 39,000 248 446 0
2019-09-20 21:24:31 GMT 45.178986 10.943168 39,000 249 446 64
2019-09-20 21:24:27 GMT 45.178986 10.943168 39,000 249 446 64
2019-09-20 21:24:24 GMT 45.180954 10.949707 38,975 249 446 0
2019-09-20 21:24:20 GMT 45.184628 10.962681 38,975 249 446 64
2019-09-20 21:24:17 GMT 45.187046 10.971590 38,975 249 446 0
2019-09-20 21:24:14 GMT 45.188583 10.977285 38,975 249 446 0
2019-09-20 21:24:09 GMT 45.192856 10.992606 39,000 249 446 0
2019-09-20 21:24:06 GMT 45.194916 10.999930 38,975 249 446 0
2019-09-20 21:24:03 GMT 45.196915 11.007363 38,975 249 446 0
2019-09-20 21:24:00 GMT 45.200176 11.018751 39,000 249 445 0
2019-09-20 21:23:57 GMT 45.201385 11.023039 39,000 249 445 0
2019-09-20 21:23:53 GMT 45.204643 11.034360 39,000 249 445 0
2019-09-20 21:23:49 GMT 45.208508 11.048562 39,000 249 445 0
2019-09-20 21:23:46 GMT 45.210983 11.057347 39,000 249 445 0
2019-09-20 21:23:43 GMT 45.212448 11.062775 39,000 249 445 0
2019-09-20 21:23:38 GMT 45.216049 11.075827 39,000 249 445 0
2019-09-20 21:23:35 GMT 45.218285 11.084066 39,000 250 441 0
2019-09-20 21:23:32 GMT 45.220100 11.090832 39,000 249 445 0
2019-09-20 21:23:25 GMT 45.225586 11.110774 39,000 249 445 64
2019-09-20 21:23:22 GMT 45.227737 11.118426 39,000 249 445 64
2019-09-20 21:23:17 GMT 45.232296 11.135112 38,975 249 445 0
2019-09-20 21:23:14 GMT 45.234249 11.141945 39,000 249 445 -64
2019-09-20 21:23:11 GMT 45.235794 11.147592 39,000 249 445 -64
2019-09-20 21:23:07 GMT 45.239319 11.160736 39,000 249 445 0
2019-09-20 21:23:04 GMT 45.241379 11.168060 39,000 249 445 0
2019-09-20 21:23:01 GMT 45.243530 11.175711 39,000 249 445 0
2019-09-20 21:22:54 GMT 45.248840 11.195134 39,000 250 441 0
2019-09-20 21:22:51 GMT 45.251011 11.203308 39,000 249 444 64
2019-09-20 21:22:44 GMT 45.257080 11.225150 39,000 249 444 0
2019-09-20 21:22:41 GMT 45.258785 11.231712 39,000 249 444 0
2019-09-20 21:22:36 GMT 45.262390 11.244572 39,000 249 444 0
2019-09-20 21:22:33 GMT 45.264648 11.252479 39,000 249 444 0
2019-09-20 21:22:30 GMT 45.266876 11.260725 38,975 249 443 0
2019-09-20 21:22:26 GMT 45.270218 11.273346 39,000 249 444 0
2019-09-20 21:22:22 GMT 45.272690 11.281847 39,000 249 443 0
2019-09-20 21:22:19 GMT 45.274426 11.288318 39,000 249 444 -64
2019-09-20 21:22:13 GMT 45.279919 11.308281 39,000 249 442 0
2019-09-20 21:22:10 GMT 45.282852 11.319384 38,975 249 442 64
2019-09-20 21:22:03 GMT 45.287064 11.334425 38,975 249 442 0
2019-09-20 21:22:00 GMT 45.289368 11.343317 38,975 249 442 64
2019-09-20 21:21:57 GMT 45.290813 11.348676 39,000 249 443 -64
2019-09-20 21:21:52 GMT 45.295166 11.364049 39,000 249 442 0
2019-09-20 21:21:49 GMT 45.297703 11.373730 39,000 249 442 64
2019-09-20 21:21:45 GMT 45.302685 11.391616 38,975 249 442 64
2019-09-20 21:21:42 GMT 45.302685 11.391616 38,975 249 442 64
2019-09-20 21:21:38 GMT 45.305149 11.400995 38,975 249 442 -64
2019-09-20 21:21:32 GMT 45.310410 11.420092 39,000 249 442 0
2019-09-20 21:21:29 GMT 45.311852 11.425513 39,000 249 442 0
2019-09-20 21:21:26 GMT 45.313568 11.431667 39,000 249 442 0
2019-09-20 21:21:23 GMT 45.316727 11.443438 39,000 249 442 0
2019-09-20 21:21:19 GMT 45.318882 11.451438 38,975 249 441 64
2019-09-20 21:21:16 GMT 45.321815 11.462224 38,975 249 441 64
2019-09-20 21:21:10 GMT 45.328079 11.484964 38,975 249 441 -64
2019-09-20 21:21:03 GMT 45.330414 11.493792 39,000 250 441 0
2019-09-20 21:21:00 GMT 45.333206 11.504386 38,975 249 441 0
2019-09-20 21:20:57 GMT 45.335270 11.511729 39,000 249 441 0
2019-09-20 21:20:52 GMT 45.339134 11.525730 38,975 249 440 0
2019-09-20 21:20:49 GMT 45.341446 11.534598 38,975 249 440 0
2019-09-20 21:20:46 GMT 45.345043 11.547971 39,000 249 440 0
2019-09-20 21:20:40 GMT 45.348072 11.558555 39,000 249 440 0
2019-09-20 21:20:37 GMT 45.349869 11.565138 39,000 249 440 0
2019-09-20 21:20:34 GMT 45.352119 11.573762 39,000 249 440 0
2019-09-20 21:20:29 GMT 45.356232 11.588811 39,000 249 440 0
2019-09-20 21:20:26 GMT 45.358128 11.595734 39,000 249 439 -64
2019-09-20 21:20:23 GMT 45.361294 11.607659 39,000 249 439 0
2019-09-20 21:20:19 GMT 45.365574 11.623066 39,000 250 439 0
2019-09-20 21:20:16 GMT 45.365574 11.623066 39,000 250 439 0
2019-09-20 21:20:12 GMT 45.368500 11.633737 39,000 250 439 0
2019-09-20 21:20:08 GMT 45.370651 11.642238 39,000 250 439 0
2019-09-20 21:20:05 GMT 45.373398 11.651982 39,000 249 439 0
2019-09-20 21:20:02 GMT 45.375957 11.661987 39,000 250 438 0
2019-09-20 21:19:57 GMT 45.379303 11.673758 39,000 250 438 0
2019-09-20 21:19:54 GMT 45.381454 11.682064 39,000 250 438 0
2019-09-20 21:19:51 GMT 45.383743 11.690565 39,000 250 438 0
2019-09-20 21:19:47 GMT 45.386673 11.701224 39,000 250 438 0
2019-09-20 21:19:44 GMT 45.388664 11.708679 39,000 250 437 0
2019-09-20 21:19:40 GMT 45.392349 11.722151 39,000 250 437 0
2019-09-20 21:19:36 GMT 45.394180 11.728755 39,000 250 436 0
2019-09-20 21:19:33 GMT 45.396240 11.736995 38,975 250 437 0
2019-09-20 21:19:30 GMT 45.398621 11.745562 38,975 250 437 0
2019-09-20 21:19:26 GMT 45.402008 11.758183 39,000 250 436 0
2019-09-20 21:19:23 GMT 45.404205 11.766423 39,000 250 436 64
2019-09-20 21:19:20 GMT 45.407055 11.776808 39,000 250 436 0
2019-09-20 21:19:15 GMT 45.409790 11.787480 39,000 250 436 0
2019-09-20 21:19:12 GMT 45.411381 11.793354 39,000 250 436 0
2019-09-20 21:19:07 GMT 45.415012 11.807087 39,000 250 436 0
2019-09-20 21:19:04 GMT 45.417755 11.817431 39,000 250 436 0
2019-09-20 21:18:58 GMT 45.422554 11.834955 39,000 250 435 0
2019-09-20 21:18:55 GMT 45.424210 11.841365 39,000 250 435 0
2019-09-20 21:18:52 GMT 45.425766 11.846989 39,000 250 435 0
2019-09-20 21:18:49 GMT 45.427643 11.853856 39,000 250 436 0
2019-09-20 21:18:45 GMT 45.430710 11.865758 38,975 250 435 0
2019-09-20 21:18:42 GMT 45.433365 11.875436 39,000 250 435 0
2019-09-20 21:18:39 GMT 45.435104 11.882302 39,000 250 435 0
2019-09-20 21:18:33 GMT 45.439220 11.898059 39,000 250 434 0
2019-09-20 21:18:30 GMT 45.441082 11.904959 39,000 250 434 0
2019-09-20 21:18:23 GMT 45.446438 11.925056 38,975 250 435 0
2019-09-20 21:18:20 GMT 45.448242 11.932133 38,975 250 434 0
2019-09-20 21:18:15 GMT 45.452591 11.948220 38,975 250 434 0
2019-09-20 21:18:12 GMT 45.454582 11.956006 38,975 250 434 0
2019-09-20 21:18:09 GMT 45.456024 11.960907 39,000 250 434 0
2019-09-20 21:18:06 GMT 45.458038 11.968885 39,000 250 434 0
2019-09-20 21:18:02 GMT 45.462635 11.986218 39,000 250 434 0
2019-09-20 21:17:59 GMT 45.463348 11.988831 39,000 250 434 0
2019-09-20 21:17:54 GMT 45.467480 12.004238 39,000 250 433 0
2019-09-20 21:17:51 GMT 45.469341 12.011138 39,000 250 433 0
2019-09-20 21:17:48 GMT 45.471062 12.017971 39,000 250 433 0
2019-09-20 21:17:43 GMT 45.474693 12.031570 39,000 250 433 0
2019-09-20 21:17:39 GMT 45.477356 12.041931 39,000 250 434 0
2019-09-20 21:17:36 GMT 45.479141 12.048732 39,000 250 433 -64
2019-09-20 21:17:33 GMT 45.481724 12.057964 39,000 250 434 0
2019-09-20 21:17:30 GMT 45.483856 12.066520 39,000 250 434 0
2019-09-20 21:17:27 GMT 45.488800 12.085223 39,000 250 433 -64
2019-09-20 21:17:20 GMT 45.490997 12.093528 39,000 250 433 0
2019-09-20 21:17:15 GMT 45.493919 12.104522 39,000 250 433 -64
2019-09-20 21:17:11 GMT 45.497688 12.119461 39,000 250 433 0
2019-09-20 21:17:08 GMT 45.499039 12.124619 39,000 250 433 0
2019-09-20 21:17:05 GMT 45.500996 12.132055 39,000 250 433 0
2019-09-20 21:16:59 GMT 45.505142 12.147871 39,000 250 433 0
2019-09-20 21:16:56 GMT 45.507698 12.157310 39,000 250 432 0
2019-09-20 21:16:53 GMT 45.509399 12.163631 39,000 250 433 0
2019-09-20 21:16:50 GMT 45.512833 12.176514 38,975 250 433 0
2019-09-20 21:16:47 GMT 45.513794 12.180568 38,975 250 433 0
2019-09-20 21:16:44 GMT 45.516216 12.189465 39,000 250 432 0
2019-09-20 21:16:39 GMT 45.519711 12.202997 38,975 250 433 0
2019-09-20 21:16:36 GMT 45.522224 12.211974 38,975 250 433 -64
2019-09-20 21:16:33 GMT 45.524551 12.221352 39,000 250 433 -64
2019-09-20 21:16:29 GMT 45.527435 12.231968 39,000 250 432 0
2019-09-20 21:16:24 GMT 45.530136 12.242722 39,000 250 432 0
2019-09-20 21:16:20 GMT 45.532883 12.252971 39,000 250 432 0
2019-09-20 21:16:17 GMT 45.534698 12.259938 39,000 250 432 0
2019-09-20 21:16:14 GMT 45.536888 12.268178 39,000 250 432 0
2019-09-20 21:16:11 GMT 45.539028 12.276351 39,000 250 432 0
2019-09-20 21:16:08 GMT 45.541443 12.285265 39,000 250 432 0
2019-09-20 21:16:05 GMT 45.543217 12.292428 39,000 250 432 0
2019-09-20 21:16:01 GMT 45.547028 12.306496 39,000 250 433 0
2019-09-20 21:15:58 GMT 45.550388 12.319450 38,975 250 433 0
2019-09-20 21:15:55 GMT 45.550388 12.319450 38,975 250 433 0
2019-09-20 21:15:52 GMT 45.552761 12.328377 38,975 250 433 0
2019-09-20 21:15:49 GMT 45.554668 12.336067 39,000 250 433 0
2019-09-20 21:15:46 GMT 45.556778 12.344412 38,975 250 433 0
2019-09-20 21:15:43 GMT 45.559650 12.354813 38,975 250 432 0
2019-09-20 21:15:40 GMT 45.561539 12.362500 38,975 250 432 0
2019-09-20 21:15:37 GMT 45.564957 12.375412 38,975 250 432 0
2019-09-20 21:15:34 GMT 45.564957 12.375412 38,975 250 432 0
2019-09-20 21:15:29 GMT 45.568588 12.389832 38,975 250 432 0
2019-09-20 21:15:26 GMT 45.570030 12.395256 39,000 250 432 0
2019-09-20 21:15:23 GMT 45.572342 12.404033 39,000 250 433 0
2019-09-20 21:15:19 GMT 45.575619 12.416748 38,975 250 433 0
2019-09-20 21:15:15 GMT 45.578705 12.429289 38,975 250 433 0
2019-09-20 21:15:11 GMT 45.580601 12.436523 38,975 250 433 0
2019-09-20 21:15:08 GMT 45.583008 12.445433 38,975 250 433 0
2019-09-20 21:15:05 GMT 45.585114 12.453964 38,975 250 433 0
2019-09-20 21:15:02 GMT 45.586487 12.459434 39,000 250 433 0
2019-09-20 21:14:59 GMT 45.589233 12.469750 38,975 250 433 0
2019-09-20 21:14:56 GMT 45.591568 12.478928 38,975 250 433 0
2019-09-20 21:14:53 GMT 45.593819 12.487473 38,975 250 433 0
2019-09-20 21:14:50 GMT 45.595001 12.492661 38,975 250 433 0
2019-09-20 21:14:47 GMT 45.597126 12.500999 38,975 250 433 0
2019-09-20 21:14:44 GMT 45.599316 12.509308 39,000 250 433 0
2019-09-20 21:14:40 GMT 45.602058 12.520088 39,000 250 433 0
2019-09-20 21:14:37 GMT 45.604061 12.527916 39,000 250 433 0
2019-09-20 21:14:34 GMT 45.606674 12.537946 39,000 250 433 0
2019-09-20 21:14:31 GMT 45.607773 12.542166 39,000 250 433 0
2019-09-20 21:14:27 GMT 45.611160 12.555095 39,000 250 433 0
2019-09-20 21:14:24 GMT 45.612854 12.561995 39,000 250 433 0
2019-09-20 21:14:21 GMT 45.615326 12.571709 39,000 250 433 0
2019-09-20 21:14:18 GMT 45.617432 12.579413 38,975 250 433 0
2019-09-20 21:14:15 GMT 45.621426 12.595482 39,000 250 433 0
2019-09-20 21:14:12 GMT 45.621426 12.595482 38,975 250 433 0
2019-09-20 21:14:09 GMT 45.623520 12.603194 39,000 250 433 0
2019-09-20 21:14:06 GMT 45.625626 12.611702 38,975 250 433 0
2019-09-20 21:14:03 GMT 45.630524 12.630325 38,975 250 433 0
2019-09-20 21:13:59 GMT 45.630524 12.630325 39,000 250 433 0
2019-09-20 21:13:56 GMT 45.632786 12.639221 38,975 250 433 0
2019-09-20 21:13:53 GMT 45.634506 12.645733 38,975 250 434 0
2019-09-20 21:13:50 GMT 45.636612 12.654106 38,975 250 434 0
2019-09-20 21:13:46 GMT 45.639534 12.665245 38,975 251 437 0
2019-09-20 21:13:43 GMT 45.641876 12.674404 38,975 250 434 0
2019-09-20 21:13:39 GMT 45.643955 12.682686 38,975 250 434 0
2019-09-20 21:13:36 GMT 45.646004 12.690376 38,975 251 437 0
2019-09-20 21:13:33 GMT 45.648560 12.700664 38,975 250 434 0
2019-09-20 21:13:29 GMT 45.651031 12.710378 38,975 250 434 0
2019-09-20 21:13:25 GMT 45.654011 12.721893 38,975 250 434 -64
2019-09-20 21:13:22 GMT 45.656113 12.729872 39,000 250 435 0
2019-09-20 21:13:18 GMT 45.658340 12.738991 39,000 250 435 0
2019-09-20 21:13:14 GMT 45.662067 12.753273 39,000 250 436 0
2019-09-20 21:13:11 GMT 45.663231 12.757805 38,975 251 438 0
2019-09-20 21:13:08 GMT 45.665649 12.767212 39,000 251 436 0
2019-09-20 21:13:04 GMT 45.668701 12.778908 39,000 251 436 0
2019-09-20 21:13:00 GMT 45.670727 12.787399 38,975 251 438 0
2019-09-20 21:12:57 GMT 45.672592 12.794584 38,975 251 437 0
2019-09-20 21:12:53 GMT 45.676437 12.809590 38,975 251 438 0
2019-09-20 21:12:50 GMT 45.677994 12.815820 38,975 251 437 0
2019-09-20 21:12:47 GMT 45.679916 12.823457 38,975 251 437 0
2019-09-20 21:12:42 GMT 45.683533 12.837390 39,000 251 438 -64
2019-09-20 21:12:39 GMT 45.685364 12.845295 39,000 251 438 -64
2019-09-20 21:12:34 GMT 45.688927 12.858948 39,000 251 438 0
2019-09-20 21:12:31 GMT 45.692688 12.874235 39,000 251 439 0
2019-09-20 21:12:25 GMT 45.694839 12.882706 38,975 251 440 64
2019-09-20 21:12:21 GMT 45.697723 12.894265 38,975 251 443 -64
2019-09-20 21:12:18 GMT 45.700150 12.903509 38,975 251 443 -64
2019-09-20 21:12:14 GMT 45.703266 12.915665 39,000 251 444 0
2019-09-20 21:12:11 GMT 45.704865 12.922467 39,000 251 444 0
2019-09-20 21:12:08 GMT 45.707127 12.930840 39,000 251 444 0
2019-09-20 21:12:05 GMT 45.709175 12.939285 39,000 251 444 -64
2019-09-20 21:12:01 GMT 45.711971 12.950546 39,000 251 444 -64
2019-09-20 21:11:58 GMT 45.714485 12.960365 39,000 251 444 0
2019-09-20 21:11:54 GMT 45.716721 12.968824 39,000 251 444 64
2019-09-20 21:11:51 GMT 45.719463 12.979797 39,000 251 444 64
2019-09-20 21:11:48 GMT 45.721573 12.988452 39,000 251 444 0
2019-09-20 21:11:45 GMT 45.723606 12.996620 39,000 251 444 0
2019-09-20 21:11:42 GMT 45.725143 13.002453 39,000 251 444 0
2019-09-20 21:11:39 GMT 45.729858 13.021545 39,000 251 444 -64
2019-09-20 21:11:33 GMT 45.731186 13.026436 39,000 251 444 -64
2019-09-20 21:11:30 GMT 45.733795 13.037087 39,000 251 444 0
2019-09-20 21:11:27 GMT 45.735168 13.042312 39,000 251 444 0
2019-09-20 21:11:24 GMT 45.737389 13.050797 39,000 251 444 0
2019-09-20 21:11:21 GMT 45.739380 13.058926 39,000 251 449 0
2019-09-20 21:11:18 GMT 45.741669 13.068443 39,000 251 444 0
2019-09-20 21:11:15 GMT 45.744232 13.078085 39,000 251 445 0
2019-09-20 21:11:12 GMT 45.745953 13.085129 39,000 251 445 0
2019-09-20 21:11:09 GMT 45.747803 13.092421 39,000 251 445 0
2019-09-20 21:11:06 GMT 45.750191 13.101677 39,000 251 445 64
2019-09-20 21:11:03 GMT 45.751831 13.108431 38,975 251 445 64
2019-09-20 21:10:59 GMT 45.755219 13.121829 38,975 251 445 0
2019-09-20 21:10:56 GMT 45.757828 13.132481 38,975 251 445 0
2019-09-20 21:10:53 GMT 45.759827 13.140610 38,975 251 444 64
2019-09-20 21:10:50 GMT 45.761353 13.146816 38,975 251 444 0
2019-09-20 21:10:47 GMT 45.762711 13.152145 38,975 251 444 0
2019-09-20 21:10:43 GMT 45.766155 13.166222 39,000 251 444 0
2019-09-20 21:10:40 GMT 45.767532 13.171536 39,000 251 444 -64
2019-09-20 21:10:37 GMT 45.769928 13.180779 39,000 251 444 0
2019-09-20 21:10:34 GMT 45.773758 13.196523 39,000 251 446 -64
2019-09-20 21:10:31 GMT 45.773758 13.196523 38,975 251 444 64
2019-09-20 21:10:28 GMT 45.776817 13.208794 38,975 251 444 0
2019-09-20 21:10:23 GMT 45.779526 13.219768 39,000 251 445 0
2019-09-20 21:10:20 GMT 45.781311 13.226735 39,000 251 445 64
2019-09-20 21:10:17 GMT 45.784081 13.237701 39,000 251 445 64
2019-09-20 21:10:13 GMT 45.786942 13.249110 38,975 251 445 64
2019-09-20 21:10:10 GMT 45.788830 13.256996 38,975 251 446 0
2019-09-20 21:10:07 GMT 45.790409 13.263107 38,975 251 446 -64
2019-09-20 21:10:04 GMT 45.792599 13.272102 39,000 251 446 -64
2019-09-20 21:10:00 GMT 45.795391 13.283569 39,000 251 447 0
2019-09-20 21:09:57 GMT 45.797150 13.290242 39,000 251 447 -64
2019-09-20 21:09:54 GMT 45.799805 13.300625 39,000 251 447 0
2019-09-20 21:09:51 GMT 45.801769 13.308975 39,000 251 447 0
2019-09-20 21:09:48 GMT 45.803818 13.317009 39,000 251 448 0
2019-09-20 21:09:45 GMT 45.805801 13.325478 39,000 251 448 0
2019-09-20 21:09:42 GMT 45.808228 13.334589 39,000 251 449 0
2019-09-20 21:09:36 GMT 45.812244 13.351547 39,000 251 450 0
2019-09-20 21:09:30 GMT 45.815922 13.366379 39,000 251 450 0
2019-09-20 21:09:27 GMT 45.818108 13.375168 38,975 251 450 0
2019-09-20 21:09:24 GMT 45.820221 13.383558 39,000 251 451 -64
2019-09-20 21:09:20 GMT 45.823742 13.397690 39,000 251 450 0
2019-09-20 21:09:16 GMT 45.826069 13.407372 39,000 251 451 0
2019-09-20 21:09:12 GMT 45.829235 13.419662 39,000 251 451 0
2019-09-20 21:09:09 GMT 45.830704 13.425762 38,975 251 451 0
2019-09-20 21:09:05 GMT 45.833378 13.436897 39,000 251 451 -64
2019-09-20 21:09:02 GMT 45.837894 13.455437 38,975 251 451 -64
2019-09-20 21:08:55 GMT 45.840733 13.466560 39,000 251 451 64
2019-09-20 21:08:52 GMT 45.843666 13.478233 38,975 251 451 0
2019-09-20 21:08:48 GMT 45.845032 13.484043 39,000 251 451 0
2019-09-20 21:08:45 GMT 45.850113 13.504542 39,000 251 451 -64
2019-09-20 21:08:42 GMT 45.850113 13.504542 39,000 251 451 0
2019-09-20 21:08:38 GMT 45.852280 13.513184 39,000 251 451 0
2019-09-20 21:08:34 GMT 45.855240 13.525644 39,000 251 451 64
2019-09-20 21:08:31 GMT 45.857632 13.535088 38,975 251 451 0
2019-09-20 21:08:28 GMT 45.859726 13.544014 39,000 251 450 0
2019-09-20 21:08:24 GMT 45.861961 13.552597 39,000 251 450 0
2019-09-20 21:08:20 GMT 45.864670 13.564297 39,000 251 450 0
2019-09-20 21:08:17 GMT 45.866848 13.573128 39,000 251 450 0
2019-09-20 21:08:14 GMT 45.868992 13.581436 39,000 251 450 0
2019-09-20 21:08:10 GMT 45.874191 13.602883 39,000 251 450 0
2019-09-20 21:08:07 GMT 45.874191 13.602883 39,000 251 450 0
2019-09-20 21:08:03 GMT 45.876438 13.612267 39,000 251 450 0
2019-09-20 21:08:00 GMT 45.878174 13.618960 39,000 251 449 0
2019-09-20 21:07:56 GMT 45.881744 13.633430 39,000 251 449 0
2019-09-20 21:07:51 GMT 45.884628 13.645689 39,000 251 449 0
2019-09-20 21:07:47 GMT 45.887333 13.656830 39,000 251 449 0
2019-09-20 21:07:44 GMT 45.892181 13.676572 39,000 251 448 0
2019-09-20 21:07:41 GMT 45.892181 13.676572 39,000 251 448 0
2019-09-20 21:07:36 GMT 45.894966 13.687660 39,000 251 448 0
2019-09-20 21:07:33 GMT 45.897480 13.698029 39,000 251 447 0
2019-09-20 21:07:30 GMT 45.899048 13.704908 39,000 251 447 0
2019-09-20 21:07:27 GMT 45.901112 13.712791 39,000 251 447 0
2019-09-20 21:07:23 GMT 45.903854 13.724469 39,000 251 447 0
2019-09-20 21:07:20 GMT 45.905548 13.731168 39,000 251 447 0
2019-09-20 21:07:17 GMT 45.907627 13.740051 39,000 251 446 0
2019-09-20 21:07:14 GMT 45.910423 13.751175 39,000 251 446 64
2019-09-20 21:07:11 GMT 45.912052 13.758110 38,975 251 446 64
2019-09-20 21:07:08 GMT 45.914471 13.768204 38,975 251 446 0
2019-09-20 21:07:03 GMT 45.917404 13.780426 38,975 251 446 0
2019-09-20 21:07:00 GMT 45.919453 13.788803 38,975 251 446 0
2019-09-20 21:06:57 GMT 45.921341 13.796550 38,975 251 446 0
2019-09-20 21:06:53 GMT 45.924107 13.808029 38,975 251 446 0
2019-09-20 21:06:49 GMT 45.926926 13.819997 38,975 251 446 0
2019-09-20 21:06:46 GMT 45.928894 13.828170 39,000 251 446 -64
2019-09-20 21:06:41 GMT 45.932144 13.841501 39,000 251 445 -64
2019-09-20 21:06:38 GMT 45.934212 13.850121 39,000 251 445 -64
2019-09-20 21:06:35 GMT 45.936211 13.858223 39,000 251 444 0
2019-09-20 21:06:29 GMT 45.940121 13.874771 39,000 251 444 0
2019-09-20 21:06:26 GMT 45.942684 13.885071 39,000 251 444 0
2019-09-20 21:06:21 GMT 45.946079 13.899353 39,000 251 444 0
2019-09-20 21:06:18 GMT 45.947433 13.904672 39,000 251 444 0
2019-09-20 21:06:11 GMT 45.952179 13.924828 38,975 251 443 0
2019-09-20 21:06:08 GMT 45.954971 13.936295 38,975 251 443 0
2019-09-20 21:06:05 GMT 45.956367 13.942131 38,975 252 443 0
2019-09-20 21:06:01 GMT 45.959702 13.956120 38,975 252 443 0
2019-09-20 21:05:58 GMT 45.963120 13.970352 39,000 251 443 0
2019-09-20 21:05:55 GMT 45.963120 13.970352 38,975 252 443 0
2019-09-20 21:05:48 GMT 45.967575 13.987873 39,000 248 443 0
2019-09-20 21:05:45 GMT 45.973595 14.008667 39,000 247 443 0
2019-09-20 21:05:40 GMT 45.973595 14.008667 39,000 246 443 0
2019-09-20 21:05:37 GMT 45.976913 14.018689 39,000 246 443 0
2019-09-20 21:05:34 GMT 45.979248 14.025857 39,000 245 443 0
2019-09-20 21:05:31 GMT 45.982178 14.034766 39,000 245 443 0
2019-09-20 21:05:28 GMT 45.988350 14.052956 39,000 245 443 0
2019-09-20 21:05:24 GMT 45.988350 14.052956 39,000 245 443 0
2019-09-20 21:05:21 GMT 45.991104 14.061361 39,000 245 443 0
2019-09-20 21:05:18 GMT 45.993752 14.069160 39,000 245 443 0
2019-09-20 21:05:15 GMT 45.997196 14.079803 39,000 245 443 0
2019-09-20 21:05:12 GMT 45.998886 14.084942 39,000 245 442 0
2019-09-20 21:05:09 GMT 46.001476 14.092506 39,000 245 442 0
2019-09-20 21:05:06 GMT 46.004364 14.100952 39,000 245 442 0
2019-09-20 21:05:03 GMT 46.009811 14.117363 39,000 245 442 0
2019-09-20 21:05:00 GMT 46.012047 14.124023 39,000 245 442 0
2019-09-20 21:04:57 GMT 46.012047 14.124023 39,000 245 442 0
2019-09-20 21:04:54 GMT 46.017197 14.139337 39,000 245 441 0
2019-09-20 21:04:51 GMT 46.017197 14.139337 38,975 245 441 0
2019-09-20 21:04:47 GMT 46.020950 14.150659 39,000 245 441 0
2019-09-20 21:04:42 GMT 46.025314 14.163918 38,975 245 437 0
2019-09-20 21:04:39 GMT 46.028412 14.173234 38,975 245 441 0
2019-09-20 21:04:36 GMT 46.030289 14.178727 38,975 245 441 -64
2019-09-20 21:04:32 GMT 46.033924 14.189667 39,000 245 441 0
2019-09-20 21:04:28 GMT 46.037796 14.201303 39,000 245 440 64
2019-09-20 21:04:25 GMT 46.040443 14.209099 38,975 245 440 0
2019-09-20 21:04:21 GMT 46.044724 14.222145 38,975 245 440 0
2019-09-20 21:04:16 GMT 46.050568 14.239956 39,000 245 439 -64
2019-09-20 21:04:13 GMT 46.054081 14.250504 39,000 245 438 0
2019-09-20 21:04:10 GMT 46.056747 14.258847 39,000 245 439 0
2019-09-20 21:04:06 GMT 46.059387 14.266708 39,000 245 439 0
2019-09-20 21:04:00 GMT 46.061462 14.273049 39,000 245 438 0
2019-09-20 21:03:57 GMT 46.065254 14.284355 39,000 245 438 0
2019-09-20 21:03:54 GMT 46.067024 14.290123 39,000 245 438 0
2019-09-20 21:03:50 GMT 46.070843 14.301453 39,000 245 438 0
2019-09-20 21:03:46 GMT 46.074600 14.312774 39,000 245 438 0
2019-09-20 21:03:43 GMT 46.076981 14.319808 39,000 245 438 0
2019-09-20 21:03:39 GMT 46.080368 14.329856 39,000 245 438 0
2019-09-20 21:03:36 GMT 46.086342 14.348213 39,000 245 438 0
2019-09-20 21:03:32 GMT 46.086342 14.348213 39,000 245 438 0
2019-09-20 21:03:28 GMT 46.089275 14.357140 39,000 245 437 0
2019-09-20 21:03:22 GMT 46.095474 14.375476 39,000 245 437 64
2019-09-20 21:03:18 GMT 46.098724 14.385659 38,975 245 437 0
2019-09-20 21:03:12 GMT 46.103428 14.400124 38,975 245 436 0
2019-09-20 21:03:07 GMT 46.107559 14.412857 39,000 245 437 0
2019-09-20 21:03:03 GMT 46.113716 14.431709 39,000 245 437 0
2019-09-20 21:03:00 GMT 46.113716 14.431709 39,000 245 437 0
2019-09-20 21:02:55 GMT 46.118183 14.445099 39,000 245 437 0
2019-09-20 21:02:52 GMT 46.120880 14.453453 39,000 245 437 0
2019-09-20 21:02:49 GMT 46.123028 14.459862 39,000 245 437 0
2019-09-20 21:02:46 GMT 46.126007 14.469396 39,000 245 437 0
2019-09-20 21:02:42 GMT 46.129532 14.480114 38,975 245 437 0
2019-09-20 21:02:39 GMT 46.132874 14.490565 38,975 245 437 0
2019-09-20 21:02:34 GMT 46.136063 14.500237 38,975 245 437 0
2019-09-20 21:02:31 GMT 46.139507 14.510880 38,975 245 437 0
2019-09-20 21:02:28 GMT 46.141296 14.516088 38,975 245 436 64
2019-09-20 21:02:24 GMT 46.144718 14.527084 38,975 245 436 64
2019-09-20 21:02:21 GMT 46.148350 14.537865 38,975 245 436 64
2019-09-20 21:02:18 GMT 46.150223 14.543420 38,975 245 435 -192
2019-09-20 21:02:13 GMT 46.153473 14.553864 39,000 245 435 -192
2019-09-20 21:02:10 GMT 46.157661 14.566635 39,000 245 434 64
2019-09-20 21:02:07 GMT 46.162827 14.582085 38,875 245 434 448
2019-09-20 21:02:04 GMT 46.162827 14.582085 38,875 245 434 896
2019-09-20 21:01:59 GMT 46.166508 14.593208 38,900 245 434 896
2019-09-20 21:01:56 GMT 46.169769 14.603644 38,750 245 435 896
2019-09-20 21:01:51 GMT 46.172791 14.612687 38,750 245 437 960
2019-09-20 21:01:48 GMT 46.175720 14.621396 38,700 245 437 896
2019-09-20 21:01:45 GMT 46.178192 14.628914 38,600 245 438 960
2019-09-20 21:01:41 GMT 46.181030 14.637875 38,625 245 437 960
2019-09-20 21:01:37 GMT 46.187454 14.657341 38,525 245 438 960
2019-09-20 21:01:30 GMT 46.192017 14.671169 38,425 245 440 1024
2019-09-20 21:01:27 GMT 46.193665 14.676127 38,325 245 440 1024
2019-09-20 21:01:24 GMT 46.196671 14.685425 38,350 245 440 1024
2019-09-20 21:01:20 GMT 46.199928 14.695244 38,250 245 441 1024
2019-09-20 21:01:17 GMT 46.202499 14.703592 38,225 245 441 1088
2019-09-20 21:01:14 GMT 46.205475 14.712502 38,150 245 441 1088
2019-09-20 21:01:11 GMT 46.211754 14.731430 38,000 245 443 704
2019-09-20 21:01:07 GMT 46.211754 14.731430 38,025 245 443 832
2019-09-20 21:01:04 GMT 46.214828 14.740906 38,025 246 451 64
2019-09-20 21:01:01 GMT 46.218704 14.753165 38,000 245 444 0
2019-09-20 21:00:55 GMT 46.221176 14.760601 37,975 246 445 0
2019-09-20 21:00:51 GMT 46.224556 14.771187 37,975 245 446 0
2019-09-20 21:00:48 GMT 46.227631 14.780363 37,975 245 446 0
2019-09-20 21:00:45 GMT 46.230377 14.788870 37,975 245 446 0
2019-09-20 21:00:40 GMT 46.234055 14.800644 38,000 246 447 0
2019-09-20 21:00:37 GMT 46.237682 14.811974 38,000 246 447 0
2019-09-20 21:00:34 GMT 46.239639 14.817879 38,000 246 447 0
2019-09-20 21:00:28 GMT 46.248596 14.845544 37,975 246 448 -64
2019-09-20 21:00:24 GMT 46.248596 14.845544 37,975 246 448 -64
2019-09-20 21:00:20 GMT 46.252861 14.859077 38,000 246 450 0
2019-09-20 21:00:16 GMT 46.255188 14.866219 37,975 246 453 -64
2019-09-20 21:00:13 GMT 46.257751 14.873881 37,975 246 451 64
2019-09-20 21:00:08 GMT 46.263519 14.891499 37,975 246 450 -64
2019-09-20 21:00:05 GMT 46.267868 14.905299 37,975 246 451 64
2019-09-20 20:59:59 GMT 46.271072 14.915213 38,000 246 451 0
2019-09-20 20:59:55 GMT 46.275009 14.927405 38,000 246 453 -64
2019-09-20 20:59:52 GMT 46.276108 14.931090 37,975 246 453 -64
2019-09-20 20:59:48 GMT 46.280930 14.945869 38,000 246 453 -64
2019-09-20 20:59:45 GMT 46.282143 14.949783 38,000 246 452 0
2019-09-20 20:59:41 GMT 46.285812 14.961034 38,000 246 453 -64
2019-09-20 20:59:35 GMT 46.291397 14.978251 38,000 246 452 0
2019-09-20 20:59:31 GMT 46.295456 14.990913 37,975 246 453 0
2019-09-20 20:59:26 GMT 46.302200 15.012080 38,000 246 452 64
2019-09-20 20:59:20 GMT 46.304855 15.020588 38,000 246 453 0
2019-09-20 20:59:16 GMT 46.309093 15.033554 37,975 246 453 64
2019-09-20 20:59:12 GMT 46.311329 15.040558 37,975 246 454 64
2019-09-20 20:59:08 GMT 46.315109 15.052408 37,975 246 454 0
2019-09-20 20:59:05 GMT 46.317429 15.059715 37,975 246 454 0
2019-09-20 20:59:02 GMT 46.320919 15.070427 37,975 246 454 -64
2019-09-20 20:58:59 GMT 46.322922 15.076401 37,975 246 454 -64
2019-09-20 20:58:55 GMT 46.327469 15.090727 38,000 246 454 -64
2019-09-20 20:58:52 GMT 46.329254 15.096107 38,000 246 453 -64
2019-09-20 20:58:49 GMT 46.331905 15.104759 38,000 246 457 0
2019-09-20 20:58:44 GMT 46.337311 15.121743 38,000 246 453 64
2019-09-20 20:58:41 GMT 46.339912 15.129616 38,000 246 453 64
2019-09-20 20:58:38 GMT 46.341171 15.133598 37,975 246 457 0
2019-09-20 20:58:35 GMT 46.344635 15.144251 37,975 246 454 -64
2019-09-20 20:58:32 GMT 46.347687 15.154404 38,000 246 454 -64
2019-09-20 20:58:29 GMT 46.350815 15.163678 38,000 246 457 0
2019-09-20 20:58:24 GMT 46.353645 15.172668 38,000 246 454 0
2019-09-20 20:58:21 GMT 46.359280 15.190384 37,975 246 457 0
2019-09-20 20:58:18 GMT 46.359280 15.190384 37,975 246 457 0
2019-09-20 20:58:15 GMT 46.362213 15.199987 37,975 246 455 0
2019-09-20 20:58:10 GMT 46.366680 15.213661 37,975 246 457 0
2019-09-20 20:58:07 GMT 46.368896 15.220955 37,975 246 457 0
2019-09-20 20:58:03 GMT 46.372513 15.232410 38,000 246 458 0
2019-09-20 20:58:00 GMT 46.375351 15.241052 38,000 246 458 0
2019-09-20 20:57:56 GMT 46.381763 15.261795 37,975 246 458 0
2019-09-20 20:57:52 GMT 46.381763 15.261795 38,000 246 458 0
2019-09-20 20:57:48 GMT 46.385487 15.273193 37,975 246 458 0
2019-09-20 20:57:45 GMT 46.388214 15.282116 38,000 246 458 0
2019-09-20 20:57:42 GMT 46.391144 15.291361 38,000 246 458 0
2019-09-20 20:57:38 GMT 46.393890 15.299802 38,000 246 458 0
2019-09-20 20:57:35 GMT 46.396545 15.308108 38,000 246 458 0
2019-09-20 20:57:32 GMT 46.399872 15.318512 38,000 246 457 0
2019-09-20 20:57:29 GMT 46.402477 15.326889 38,000 246 457 0
2019-09-20 20:57:26 GMT 46.405106 15.335239 38,000 246 457 0
2019-09-20 20:57:23 GMT 46.407440 15.342541 38,000 246 457 0
2019-09-20 20:57:18 GMT 46.412674 15.358749 38,000 246 457 0
2019-09-20 20:57:15 GMT 46.415001 15.366577 38,000 246 457 0
2019-09-20 20:57:12 GMT 46.417648 15.374763 38,000 246 457 0
2019-09-20 20:57:08 GMT 46.421612 15.387245 38,000 246 457 0
2019-09-20 20:57:05 GMT 46.424778 15.397270 38,000 246 456 0
2019-09-20 20:57:01 GMT 46.426498 15.402626 38,000 246 457 0
2019-09-20 20:56:57 GMT 46.431656 15.418575 38,000 246 457 0
2019-09-20 20:56:54 GMT 46.433296 15.423637 38,000 246 456 0
2019-09-20 20:56:51 GMT 46.436462 15.434006 38,000 246 457 0
2019-09-20 20:56:47 GMT 46.439209 15.442624 38,000 246 457 0
2019-09-20 20:56:43 GMT 46.443165 15.454948 38,000 246 456 0
2019-09-20 20:56:39 GMT 46.446053 15.463875 38,000 246 457 0
2019-09-20 20:56:35 GMT 46.450882 15.479535 38,000 246 457 0
2019-09-20 20:56:32 GMT 46.452663 15.484886 38,000 246 457 64
2019-09-20 20:56:28 GMT 46.456375 15.496886 38,000 246 457 64
2019-09-20 20:56:25 GMT 46.459553 15.506378 37,975 246 457 0
2019-09-20 20:56:21 GMT 46.461777 15.513968 37,975 246 457 0
2019-09-20 20:56:16 GMT 46.467361 15.531519 38,000 246 457 0
2019-09-20 20:56:13 GMT 46.469513 15.537964 38,000 246 457 0
2019-09-20 20:56:10 GMT 46.474411 15.553827 37,975 246 457 0
2019-09-20 20:56:03 GMT 46.478851 15.567560 37,975 246 458 0
2019-09-20 20:56:00 GMT 46.481197 15.574905 37,975 246 458 0
2019-09-20 20:55:57 GMT 46.483658 15.583236 37,975 246 458 0
2019-09-20 20:55:54 GMT 46.486313 15.591542 37,975 246 458 0
2019-09-20 20:55:51 GMT 46.490891 15.605878 37,975 246 458 0
2019-09-20 20:55:48 GMT 46.490891 15.605878 38,000 246 458 0
2019-09-20 20:55:43 GMT 46.495678 15.621460 38,000 246 456 -64
2019-09-20 20:55:39 GMT 46.499447 15.633476 38,000 246 456 0
2019-09-20 20:55:36 GMT 46.502975 15.644397 38,000 246 456 0
2019-09-20 20:55:31 GMT 46.506317 15.655317 38,000 246 456 0
2019-09-20 20:55:28 GMT 46.510529 15.668976 38,000 246 456 64
2019-09-20 20:55:25 GMT 46.511810 15.673136 38,000 246 456 64
2019-09-20 20:55:20 GMT 46.515602 15.685181 37,975 246 456 0
2019-09-20 20:55:17 GMT 46.517975 15.692665 37,975 246 455 0
2019-09-20 20:55:13 GMT 46.521423 15.703683 37,975 246 455 0
2019-09-20 20:55:10 GMT 46.527191 15.722122 37,975 246 455 0
2019-09-20 20:55:02 GMT 46.531055 15.734413 38,000 246 453 0
2019-09-20 20:54:59 GMT 46.533943 15.743683 38,000 246 455 -64
2019-09-20 20:54:53 GMT 46.539108 15.760712 38,000 246 454 0
2019-09-20 20:54:49 GMT 46.543167 15.773353 38,000 246 454 64
2019-09-20 20:54:43 GMT 46.548466 15.790649 38,000 246 453 0
2019-09-20 20:54:37 GMT 46.552505 15.803632 38,000 246 453 0
2019-09-20 20:54:32 GMT 46.556992 15.818370 38,000 246 453 0
2019-09-20 20:54:28 GMT 46.561523 15.832706 38,000 246 453 0
2019-09-20 20:54:25 GMT 46.564014 15.840843 38,000 246 453 0
2019-09-20 20:54:20 GMT 46.567368 15.851761 37,975 246 453 64
2019-09-20 20:54:17 GMT 46.570534 15.861786 37,975 246 453 0
2019-09-20 20:54:13 GMT 46.573425 15.871091 38,000 246 454 0
2019-09-20 20:54:10 GMT 46.575577 15.878393 37,975 246 454 -64
2019-09-20 20:54:07 GMT 46.578445 15.887398 37,975 246 454 0
2019-09-20 20:54:04 GMT 46.581333 15.896324 37,975 246 454 64
2019-09-20 20:54:00 GMT 46.587433 15.916168 37,975 246 454 64
2019-09-20 20:53:57 GMT 46.589493 15.922673 37,975 246 454 64
2019-09-20 20:53:54 GMT 46.592651 15.933190 37,975 246 454 0
2019-09-20 20:53:51 GMT 46.592651 15.933190 37,975 246 454 0
2019-09-20 20:53:47 GMT 46.596359 15.944981 37,975 246 454 0
2019-09-20 20:53:43 GMT 46.603043 15.966283 37,975 246 455 -64
2019-09-20 20:53:39 GMT 46.603043 15.966283 37,975 246 455 0
2019-09-20 20:53:34 GMT 46.607777 15.981606 38,000 246 455 0
2019-09-20 20:53:31 GMT 46.609219 15.986412 38,000 246 455 0
2019-09-20 20:53:28 GMT 46.612152 15.995956 38,000 246 454 0
2019-09-20 20:53:25 GMT 46.614712 16.004059 38,000 246 454 0
2019-09-20 20:53:22 GMT 46.617325 16.012640 38,000 246 454 0
2019-09-20 20:53:18 GMT 46.621601 16.026306 38,000 246 454 0
2019-09-20 20:53:15 GMT 46.623322 16.032211 38,000 246 454 0
2019-09-20 20:53:12 GMT 46.626846 16.043455 38,000 246 454 0
2019-09-20 20:53:08 GMT 46.629517 16.051781 38,000 246 454 0
2019-09-20 20:53:05 GMT 46.631973 16.059935 38,000 246 454 0
2019-09-20 20:53:02 GMT 46.635590 16.071390 38,000 246 454 0
2019-09-20 20:52:59 GMT 46.639709 16.085323 38,000 246 454 0
2019-09-20 20:52:56 GMT 46.639709 16.085323 38,000 246 454 0
2019-09-20 20:52:53 GMT 46.642548 16.094009 38,000 246 454 0
2019-09-20 20:52:49 GMT 46.648453 16.113325 38,000 246 454 0
2019-09-20 20:52:46 GMT 46.648453 16.113325 38,000 246 454 0
2019-09-20 20:52:43 GMT 46.651016 16.121700 37,975 246 454 0
2019-09-20 20:52:40 GMT 46.654221 16.131748 37,975 246 454 0
2019-09-20 20:52:34 GMT 46.659122 16.147980 37,975 246 455 0
2019-09-20 20:52:28 GMT 46.663651 16.162697 38,000 246 455 0
2019-09-20 20:52:24 GMT 46.666897 16.173317 38,000 246 455 -64
2019-09-20 20:52:21 GMT 46.670013 16.183067 38,000 247 455 -64
2019-09-20 20:52:17 GMT 46.672764 16.191994 38,000 247 456 -64
2019-09-20 20:52:13 GMT 46.676437 16.204285 38,000 246 455 64
2019-09-20 20:52:10 GMT 46.678673 16.211494 38,000 246 455 64
2019-09-20 20:52:07 GMT 46.682026 16.222412 38,000 246 455 0
2019-09-20 20:52:04 GMT 46.684074 16.229073 38,000 247 455 0
2019-09-20 20:52:01 GMT 46.687500 16.240206 38,000 246 455 0
2019-09-20 20:51:58 GMT 46.689651 16.247505 38,000 246 455 0
2019-09-20 20:51:54 GMT 46.692581 16.256952 38,000 247 455 -64
2019-09-20 20:51:50 GMT 46.696178 16.268623 38,000 247 455 0
2019-09-20 20:51:46 GMT 46.700409 16.282610 38,000 247 456 -64
2019-09-20 20:51:43 GMT 46.703247 16.291319 38,000 247 456 0
2019-09-20 20:51:40 GMT 46.705215 16.297951 38,000 247 456 0
2019-09-20 20:51:37 GMT 46.708050 16.307419 38,000 247 456 64
2019-09-20 20:51:33 GMT 46.711540 16.318886 38,000 247 456 0
2019-09-20 20:51:29 GMT 46.714233 16.327694 38,000 247 456 0
2019-09-20 20:51:25 GMT 46.717125 16.337494 38,000 247 456 0
2019-09-20 20:51:22 GMT 46.720898 16.349510 38,000 247 456 0
2019-09-20 20:51:19 GMT 46.727180 16.369835 38,000 247 456 0
2019-09-20 20:51:14 GMT 46.727180 16.369835 38,000 247 456 0
2019-09-20 20:51:11 GMT 46.729649 16.378143 37,975 247 456 0
2019-09-20 20:51:08 GMT 46.732132 16.386511 37,975 247 456 0
2019-09-20 20:51:03 GMT 46.737282 16.403137 37,975 247 456 0
2019-09-20 20:50:56 GMT 46.745132 16.428982 38,000 247 457 0
2019-09-20 20:50:53 GMT 46.745132 16.428982 38,000 247 457 0
2019-09-20 20:50:50 GMT 46.749901 16.445091 38,000 247 457 0
2019-09-20 20:50:47 GMT 46.749901 16.445091 38,000 247 457 0
2019-09-20 20:50:44 GMT 46.752136 16.452293 38,000 247 457 0
2019-09-20 20:50:40 GMT 46.756119 16.464821 38,000 247 457 0
2019-09-20 20:50:34 GMT 46.761166 16.481552 38,000 247 457 0
2019-09-20 20:50:29 GMT 46.765446 16.495697 38,000 247 457 0
2019-09-20 20:50:24 GMT 46.770355 16.512049 38,000 247 456 0
2019-09-20 20:50:20 GMT 46.773514 16.522099 38,000 246 456 0
2019-09-20 20:50:13 GMT 46.779366 16.541290 37,975 247 457 0
2019-09-20 20:50:09 GMT 46.783493 16.554855 37,975 247 457 0
2019-09-20 20:50:04 GMT 46.786488 16.564568 37,975 247 457 0
2019-09-20 20:50:01 GMT 46.789745 16.575760 37,975 247 457 0
2019-09-20 20:49:58 GMT 46.792496 16.584824 38,000 247 457 -64
2019-09-20 20:49:53 GMT 46.795753 16.595467 38,000 247 457 0
2019-09-20 20:49:50 GMT 46.799335 16.607346 38,000 247 456 0
2019-09-20 20:49:46 GMT 46.801666 16.614611 38,000 247 457 0
2019-09-20 20:49:43 GMT 46.804321 16.623989 38,000 247 457 0
2019-09-20 20:49:39 GMT 46.808212 16.636784 38,000 247 457 0
2019-09-20 20:49:36 GMT 46.810928 16.645386 38,000 247 457 0
2019-09-20 20:49:31 GMT 46.815491 16.660900 38,000 247 457 0
2019-09-20 20:49:28 GMT 46.818516 16.670517 38,000 247 457 -64
2019-09-20 20:49:23 GMT 46.822357 16.683342 38,000 247 458 0
2019-09-20 20:49:18 GMT 46.825966 16.695580 38,000 247 458 0
2019-09-20 20:49:15 GMT 46.829041 16.706053 37,975 247 458 0
2019-09-20 20:49:12 GMT 46.830948 16.711853 38,000 247 458 0
2019-09-20 20:49:09 GMT 46.833694 16.720985 38,000 247 458 0
2019-09-20 20:49:06 GMT 46.835815 16.728493 38,000 247 458 0
2019-09-20 20:49:03 GMT 46.839001 16.739044 38,000 247 459 0
2019-09-20 20:48:59 GMT 46.843235 16.752846 38,000 247 459 0
2019-09-20 20:48:55 GMT 46.844925 16.758841 38,000 247 459 0
2019-09-20 20:48:51 GMT 46.848816 16.771635 38,000 247 459 0
2019-09-20 20:48:46 GMT 46.852386 16.783960 38,000 247 459 0
2019-09-20 20:48:41 GMT 46.857101 16.799704 38,000 247 459 0
2019-09-20 20:48:38 GMT 46.860535 16.810823 38,000 247 459 0
2019-09-20 20:48:33 GMT 46.864334 16.823753 38,000 247 459 0
2019-09-20 20:48:30 GMT 46.866486 16.830652 38,000 247 460 0
2019-09-20 20:48:25 GMT 46.871864 16.848591 38,000 247 460 0
2019-09-20 20:48:20 GMT 46.875504 16.860992 38,000 247 460 0
2019-09-20 20:48:15 GMT 46.879349 16.873421 37,975 247 460 0
2019-09-20 20:48:09 GMT 46.884480 16.890705 38,000 247 460 0
2019-09-20 20:48:06 GMT 46.886719 16.897934 38,000 247 460 0
2019-09-20 20:48:03 GMT 46.895466 16.927114 38,000 247 461 0
2019-09-20 20:47:57 GMT 46.895466 16.927114 38,000 247 461 0
2019-09-20 20:47:53 GMT 46.898399 16.937115 38,000 247 461 0
2019-09-20 20:47:48 GMT 46.902962 16.952469 38,000 247 461 0
2019-09-20 20:47:42 GMT 46.907570 16.967892 38,000 247 461 0
2019-09-20 20:47:37 GMT 46.911945 16.982752 38,000 247 461 0
2019-09-20 20:47:34 GMT 46.914555 16.991343 38,000 247 461 0
2019-09-20 20:47:31 GMT 46.917534 17.001202 38,000 247 461 0
2019-09-20 20:47:27 GMT 46.920547 17.011436 38,000 247 461 0
2019-09-20 20:47:21 GMT 46.927776 17.035641 38,000 247 462 0
2019-09-20 20:47:18 GMT 46.927776 17.035641 37,975 247 462 0
2019-09-20 20:47:15 GMT 46.930428 17.044443 38,000 247 461 0
2019-09-20 20:47:12 GMT 46.937038 17.066204 38,000 247 462 0
2019-09-20 20:47:07 GMT 46.937038 17.066204 38,000 247 462 0
2019-09-20 20:47:04 GMT 46.939590 17.075432 37,975 247 462 0
2019-09-20 20:47:00 GMT 46.943371 17.087826 38,000 247 462 -64
2019-09-20 20:46:57 GMT 46.946720 17.099022 38,000 247 462 0
2019-09-20 20:46:54 GMT 46.948700 17.105644 38,000 247 462 0
2019-09-20 20:46:48 GMT 46.953598 17.122398 37,975 247 462 0
2019-09-20 20:46:44 GMT 46.957352 17.134758 37,975 247 462 0
2019-09-20 20:46:40 GMT 46.960373 17.144989 37,975 247 462 0
2019-09-20 20:46:35 GMT 46.964828 17.160082 37,975 247 463 0
2019-09-20 20:46:32 GMT 46.966644 17.166349 37,975 247 463 0
2019-09-20 20:46:27 GMT 46.970928 17.180433 37,975 247 463 0
2019-09-20 20:46:23 GMT 46.975632 17.196280 37,975 247 463 0
2019-09-20 20:46:19 GMT 46.978378 17.205929 37,975 247 464 0
2019-09-20 20:46:14 GMT 46.982704 17.220154 37,975 247 464 0
2019-09-20 20:46:11 GMT 46.985779 17.230820 37,975 247 464 0
2019-09-20 20:46:07 GMT 46.991879 17.251635 38,000 247 464 0
2019-09-20 20:46:04 GMT 46.991879 17.251635 38,000 247 464 0
2019-09-20 20:46:01 GMT 46.994110 17.259029 38,000 247 464 -64
2019-09-20 20:45:57 GMT 46.996578 17.266987 38,000 247 464 -64
2019-09-20 20:45:53 GMT 47.000538 17.280367 38,000 247 464 0
2019-09-20 20:45:48 GMT 47.004307 17.293255 38,000 247 465 0
2019-09-20 20:45:45 GMT 47.007053 17.303043 38,000 247 465 0
2019-09-20 20:45:42 GMT 47.009892 17.312481 38,000 247 465 0
2019-09-20 20:45:38 GMT 47.012970 17.323036 38,000 247 465 0
2019-09-20 20:45:34 GMT 47.016083 17.333185 38,000 247 465 0
2019-09-20 20:45:30 GMT 47.020180 17.347130 38,000 247 466 -64
2019-09-20 20:45:26 GMT 47.026371 17.367907 38,000 247 466 0
2019-09-20 20:45:23 GMT 47.026371 17.367907 38,000 247 465 0
2019-09-20 20:45:20 GMT 47.029537 17.378752 38,000 247 465 0
2019-09-20 20:45:15 GMT 47.032562 17.389091 38,000 247 465 0
2019-09-20 20:45:11 GMT 47.037357 17.405231 38,000 247 466 0
2019-09-20 20:45:07 GMT 47.040524 17.416218 38,000 247 466 0
2019-09-20 20:45:02 GMT 47.043457 17.426514 38,000 247 466 0
2019-09-20 20:44:59 GMT 47.047043 17.438473 38,000 247 466 0
2019-09-20 20:44:53 GMT 47.051193 17.452950 38,000 247 466 0
2019-09-20 20:44:48 GMT 47.055561 17.467911 38,000 247 466 0
2019-09-20 20:44:42 GMT 47.061905 17.489273 38,000 247 466 0
2019-09-20 20:44:38 GMT 47.064423 17.497925 38,000 247 466 0
2019-09-20 20:44:35 GMT 47.066025 17.503693 37,975 247 466 0
2019-09-20 20:44:31 GMT 47.069458 17.515160 38,000 247 466 0
2019-09-20 20:44:27 GMT 47.074265 17.531502 38,000 247 466 0
2019-09-20 20:44:23 GMT 47.077881 17.543518 38,000 247 466 0
2019-09-20 20:44:20 GMT 47.079441 17.549179 38,000 247 466 0
2019-09-20 20:44:16 GMT 47.083786 17.564186 38,000 247 466 0
2019-09-20 20:44:12 GMT 47.089279 17.582726 38,000 247 466 -64
2019-09-20 20:44:09 GMT 47.089279 17.582726 38,000 247 465 -64
2019-09-20 20:44:06 GMT 47.092384 17.593336 38,000 247 464 -64
2019-09-20 20:44:01 GMT 47.095917 17.605110 38,000 247 465 0
2019-09-20 20:43:58 GMT 47.097885 17.612389 38,000 247 465 0
2019-09-20 20:43:54 GMT 47.101135 17.623375 38,000 247 465 0
2019-09-20 20:43:50 GMT 47.104752 17.635941 38,000 247 465 0
2019-09-20 20:43:47 GMT 47.107315 17.644661 38,000 247 465 0
2019-09-20 20:43:44 GMT 47.109970 17.653656 38,000 247 465 0
2019-09-20 20:43:41 GMT 47.112991 17.664230 38,000 247 465 0
2019-09-20 20:43:38 GMT 47.115055 17.671085 38,000 247 465 0
2019-09-20 20:43:33 GMT 47.123978 17.701653 38,000 247 465 0
2019-09-20 20:43:28 GMT 47.123978 17.701653 38,000 247 465 0
2019-09-20 20:43:22 GMT 47.127995 17.715805 38,000 247 465 0
2019-09-20 20:43:18 GMT 47.131256 17.726990 38,000 247 465 0
2019-09-20 20:43:14 GMT 47.135117 17.740103 38,000 247 465 0
2019-09-20 20:43:11 GMT 47.137527 17.748550 38,000 247 465 0
2019-09-20 20:43:08 GMT 47.140194 17.757568 38,000 247 465 0
2019-09-20 20:43:02 GMT 47.146198 17.778484 38,000 247 465 0
2019-09-20 20:42:58 GMT 47.148697 17.787003 37,975 247 465 0
2019-09-20 20:42:50 GMT 47.154858 17.808273 37,975 247 465 0
2019-09-20 20:42:46 GMT 47.158401 17.820717 38,000 247 465 0
2019-09-20 20:42:41 GMT 47.162613 17.835205 37,975 248 466 64
2019-09-20 20:42:38 GMT 47.165516 17.844967 37,975 248 466 64
2019-09-20 20:42:34 GMT 47.169380 17.858347 37,975 248 466 0
2019-09-20 20:42:31 GMT 47.174011 17.874619 37,975 248 466 0
2019-09-20 20:42:28 GMT 47.174011 17.874619 37,975 248 466 0
2019-09-20 20:42:24 GMT 47.176575 17.883408 37,975 248 466 0
2019-09-20 20:42:21 GMT 47.180008 17.895081 37,975 248 466 0
2019-09-20 20:42:17 GMT 47.183121 17.905724 38,000 248 466 0
2019-09-20 20:42:13 GMT 47.186005 17.916023 38,000 248 466 -64
2019-09-20 20:42:10 GMT 47.188705 17.925499 38,000 248 466 0
2019-09-20 20:42:06 GMT 47.192051 17.936941 38,000 248 466 0
2019-09-20 20:42:03 GMT 47.194794 17.946510 38,000 248 466 0
2019-09-20 20:41:58 GMT 47.201889 17.971024 38,000 248 465 0
2019-09-20 20:41:54 GMT 47.201889 17.971024 38,000 248 465 0
2019-09-20 20:41:50 GMT 47.205692 17.984549 38,000 248 465 0
2019-09-20 20:41:47 GMT 47.208858 17.995111 38,000 248 464 0
2019-09-20 20:41:44 GMT 47.213654 18.012297 38,000 248 466 0
2019-09-20 20:41:40 GMT 47.213654 18.012297 38,000 248 465 0
2019-09-20 20:41:36 GMT 47.218262 18.028070 38,000 248 465 0
2019-09-20 20:41:33 GMT 47.220428 18.035706 38,000 248 465 0
2019-09-20 20:41:30 GMT 47.221985 18.040890 37,975 248 465 0
2019-09-20 20:41:23 GMT 47.228256 18.062897 38,000 248 465 0
2019-09-20 20:41:20 GMT 47.231110 18.072931 38,000 248 465 0
2019-09-20 20:41:17 GMT 47.233246 18.080200 38,000 248 465 0
2019-09-20 20:41:14 GMT 47.238647 18.099014 38,000 248 465 0
2019-09-20 20:41:11 GMT 47.238647 18.099014 38,000 248 465 0
2019-09-20 20:41:07 GMT 47.241722 18.109835 38,000 248 466 0
2019-09-20 20:41:02 GMT 47.245586 18.123568 37,975 248 466 0
2019-09-20 20:40:59 GMT 47.247635 18.130611 38,000 248 466 0
2019-09-20 20:40:55 GMT 47.252197 18.146599 38,000 248 466 0
2019-09-20 20:40:52 GMT 47.254433 18.153992 38,000 248 466 0
2019-09-20 20:40:48 GMT 47.256901 18.162655 38,000 248 466 0
2019-09-20 20:40:44 GMT 47.260761 18.176456 37,975 248 466 0
2019-09-20 20:40:41 GMT 47.263275 18.185190 37,975 248 466 0
2019-09-20 20:40:38 GMT 47.265930 18.194696 37,975 248 466 0
2019-09-20 20:40:30 GMT 47.272217 18.216389 37,975 248 466 0
2019-09-20 20:40:25 GMT 47.278976 18.240463 38,000 248 466 0
2019-09-20 20:40:20 GMT 47.280685 18.246531 38,000 248 466 0
2019-09-20 20:40:17 GMT 47.283436 18.255756 38,000 248 466 0
2019-09-20 20:40:13 GMT 47.286179 18.265545 38,000 248 466 0
2019-09-20 20:40:10 GMT 47.288925 18.275545 38,000 248 466 0
2019-09-20 20:40:07 GMT 47.291107 18.283104 38,000 248 466 0
2019-09-20 20:40:04 GMT 47.294861 18.295670 38,000 248 466 0
2019-09-20 20:39:58 GMT 47.301224 18.318123 38,000 248 466 0
2019-09-20 20:39:55 GMT 47.301224 18.318123 38,000 248 466 0
2019-09-20 20:39:52 GMT 47.304054 18.328224 38,000 248 466 0
2019-09-20 20:39:48 GMT 47.310295 18.350477 38,000 248 466 0
2019-09-20 20:39:44 GMT 47.310295 18.350477 38,000 248 466 0
2019-09-20 20:39:39 GMT 47.315460 18.368179 38,000 248 466 -64
2019-09-20 20:39:36 GMT 47.318024 18.377592 38,000 248 466 0
2019-09-20 20:39:32 GMT 47.321373 18.389002 38,000 248 466 0
2019-09-20 20:39:28 GMT 47.323975 18.397705 38,000 248 465 0
2019-09-20 20:39:24 GMT 47.328777 18.415058 38,000 248 466 0
2019-09-20 20:39:20 GMT 47.331059 18.423437 38,000 248 465 0
2019-09-20 20:39:14 GMT 47.335464 18.438423 38,000 248 465 0
2019-09-20 20:39:11 GMT 47.337528 18.445974 38,000 248 465 0
2019-09-20 20:39:08 GMT 47.340786 18.457102 38,000 248 465 0
2019-09-20 20:39:04 GMT 47.344139 18.469284 37,975 248 465 0
2019-09-20 20:39:00 GMT 47.348236 18.484215 38,000 248 465 0
2019-09-20 20:38:56 GMT 47.350189 18.490976 37,975 248 465 0
2019-09-20 20:38:53 GMT 47.352264 18.498299 38,000 248 465 0
2019-09-20 20:38:50 GMT 47.354843 18.507244 38,000 248 465 0
2019-09-20 20:38:46 GMT 47.358990 18.521610 37,975 248 465 0
2019-09-20 20:38:43 GMT 47.361374 18.530571 37,975 248 465 0
2019-09-20 20:38:40 GMT 47.363548 18.537880 38,000 248 465 0
2019-09-20 20:38:37 GMT 47.366531 18.548443 37,975 248 465 0
2019-09-20 20:38:34 GMT 47.368580 18.555838 37,975 248 465 0
2019-09-20 20:38:31 GMT 47.370674 18.562880 38,000 248 465 0
2019-09-20 20:38:28 GMT 47.374512 18.576645 37,975 248 465 0
2019-09-20 20:38:24 GMT 47.381470 18.601845 38,000 248 465 0
2019-09-20 20:38:19 GMT 47.381470 18.601845 38,000 248 465 0
2019-09-20 20:38:13 GMT 47.386597 18.620041 38,000 248 465 0
2019-09-20 20:38:06 GMT 47.391575 18.637882 38,000 248 465 0
2019-09-20 20:38:00 GMT 47.398464 18.661757 38,000 248 465 0
2019-09-20 20:37:56 GMT 47.399918 18.667213 38,000 248 465 0
2019-09-20 20:37:50 GMT 47.404999 18.685066 38,000 248 465 0
2019-09-20 20:37:47 GMT 47.408054 18.696405 38,000 248 465 0
2019-09-20 20:37:39 GMT 47.414059 18.717886 38,000 248 465 0
2019-09-20 20:37:35 GMT 47.417358 18.729218 38,000 248 465 0
2019-09-20 20:37:30 GMT 47.420624 18.740915 38,000 248 465 0
2019-09-20 20:37:26 GMT 47.424911 18.756340 38,000 248 465 0
2019-09-20 20:37:23 GMT 47.426422 18.761833 38,000 248 465 0
2019-09-20 20:37:19 GMT 47.429718 18.773643 38,000 248 465 0
2019-09-20 20:37:16 GMT 47.433472 18.786692 38,000 248 465 0
2019-09-20 20:37:13 GMT 47.435715 18.795135 38,000 248 465 0
2019-09-20 20:37:09 GMT 47.437756 18.802677 38,000 248 465 0
2019-09-20 20:37:05 GMT 47.441895 18.817383 37,975 248 465 0
2019-09-20 20:37:02 GMT 47.444641 18.827065 38,000 248 465 0
2019-09-20 20:36:58 GMT 47.447624 18.837679 38,000 248 465 0
2019-09-20 20:36:53 GMT 47.451675 18.852327 37,975 248 465 0
2019-09-20 20:36:49 GMT 47.456749 18.870426 38,000 248 465 0
2019-09-20 20:36:44 GMT 47.459076 18.878527 38,000 248 466 0
2019-09-20 20:36:40 GMT 47.462219 18.890099 38,000 248 465 0
2019-09-20 20:36:37 GMT 47.466156 18.904243 38,000 248 465 0
2019-09-20 20:36:32 GMT 47.468479 18.912893 38,000 248 463 0
2019-09-20 20:36:28 GMT 47.471924 18.925049 38,000 248 464 0
2019-09-20 20:36:22 GMT 47.476318 18.940773 37,975 248 464 0
2019-09-20 20:36:19 GMT 47.478973 18.950317 38,000 248 464 0
2019-09-20 20:36:16 GMT 47.481373 18.959232 38,000 248 464 0
2019-09-20 20:36:12 GMT 47.485245 18.972771 38,000 248 465 0
2019-09-20 20:36:08 GMT 47.487808 18.982521 38,000 248 465 0
2019-09-20 20:36:05 GMT 47.490032 18.990433 38,000 248 465 0
2019-09-20 20:36:02 GMT 47.493153 19.001699 38,000 248 465 0
2019-09-20 20:35:59 GMT 47.496410 19.013460 38,000 248 465 0
2019-09-20 20:35:54 GMT 47.501450 19.031479 38,000 248 465 0
2019-09-20 20:35:51 GMT 47.501450 19.031479 38,000 248 465 0
2019-09-20 20:35:48 GMT 47.504837 19.043884 38,000 248 465 0
2019-09-20 20:35:42 GMT 47.509415 19.061005 38,000 248 465 0
2019-09-20 20:35:38 GMT 47.512516 19.072124 37,975 248 465 0
2019-09-20 20:35:35 GMT 47.518291 19.093111 37,975 248 465 0
2019-09-20 20:35:31 GMT 47.518291 19.093111 37,975 248 465 0
2019-09-20 20:35:25 GMT 47.523224 19.110998 37,975 248 466 0
2019-09-20 20:35:21 GMT 47.526077 19.121567 38,000 248 466 0
2019-09-20 20:35:15 GMT 47.531555 19.141281 37,975 248 466 0
2019-09-20 20:35:11 GMT 47.533539 19.148552 38,000 248 466 0
2019-09-20 20:35:04 GMT 47.540169 19.172903 38,000 248 466 0
2019-09-20 20:35:00 GMT 47.543839 19.186317 38,000 248 466 0
2019-09-20 20:34:56 GMT 47.545990 19.193665 38,000 248 466 0
2019-09-20 20:34:51 GMT 47.552181 19.216637 38,000 248 466 0
2019-09-20 20:34:43 GMT 47.557674 19.236074 38,000 248 465 0
2019-09-20 20:34:40 GMT 47.558788 19.240440 38,000 248 466 0
2019-09-20 20:34:36 GMT 47.562328 19.253048 38,000 248 466 0
2019-09-20 20:34:30 GMT 47.569427 19.278671 38,000 248 466 0
2019-09-20 20:34:24 GMT 47.571991 19.288490 38,000 248 466 0
2019-09-20 20:34:21 GMT 47.575272 19.299809 38,000 248 466 0
2019-09-20 20:34:18 GMT 47.577576 19.308678 38,000 248 466 0
2019-09-20 20:34:14 GMT 47.579910 19.317329 38,000 248 466 0
2019-09-20 20:34:11 GMT 47.583183 19.329178 38,000 248 466 0
2019-09-20 20:34:08 GMT 47.584625 19.334564 38,000 249 465 0
2019-09-20 20:34:04 GMT 47.587978 19.346500 38,000 249 465 0
2019-09-20 20:33:58 GMT 47.593052 19.365305 38,000 248 466 0
2019-09-20 20:33:54 GMT 47.596390 19.377205 38,000 248 466 0
2019-09-20 20:33:51 GMT 47.598770 19.386131 37,975 248 466 0
2019-09-20 20:33:47 GMT 47.601898 19.397490 37,975 248 466 0
2019-09-20 20:33:44 GMT 47.604549 19.406857 37,975 248 466 0
2019-09-20 20:33:36 GMT 47.612278 19.435097 38,000 248 467 0
2019-09-20 20:33:33 GMT 47.613209 19.438688 38,000 249 467 0
2019-09-20 20:33:25 GMT 47.622391 19.472649 37,975 249 466 0
2019-09-20 20:33:22 GMT 47.622391 19.472649 38,000 249 466 0
2019-09-20 20:33:16 GMT 47.628067 19.493317 37,975 249 467 0
2019-09-20 20:33:13 GMT 47.629349 19.497917 38,000 249 467 0
2019-09-20 20:33:09 GMT 47.632343 19.509043 38,000 249 467 0
2019-09-20 20:33:02 GMT 47.638115 19.530029 38,000 249 467 0
2019-09-20 20:32:58 GMT 47.641701 19.543409 37,975 249 467 0
2019-09-20 20:32:53 GMT 47.646587 19.561722 38,000 249 467 -64
2019-09-20 20:32:42 GMT 47.655621 19.594540 38,000 249 466 0
2019-09-20 20:32:36 GMT 47.659298 19.608061 38,000 249 467 0
2019-09-20 20:32:31 GMT 47.663532 19.623905 38,000 249 467 0
2019-09-20 20:32:25 GMT 47.668304 19.641563 37,975 249 467 0
2019-09-20 20:32:22 GMT 47.670563 19.649963 38,000 249 467 0
2019-09-20 20:32:19 GMT 47.673031 19.659401 38,000 249 467 0
2019-09-20 20:32:13 GMT 47.678192 19.678299 37,975 249 467 0
2019-09-20 20:32:10 GMT 47.679920 19.684965 37,975 249 467 0
2019-09-20 20:32:07 GMT 47.682480 19.694120 37,975 249 467 0
2019-09-20 20:32:01 GMT 47.688080 19.715034 37,975 249 468 0
2019-09-20 20:31:56 GMT 47.690952 19.726376 37,975 249 468 0
2019-09-20 20:31:51 GMT 47.695328 19.741940 37,975 249 468 0
2019-09-20 20:31:48 GMT 47.698494 19.753910 37,975 249 468 0
2019-09-20 20:31:41 GMT 47.703232 19.771477 38,000 249 468 0
2019-09-20 20:31:37 GMT 47.706501 19.783772 37,975 249 468 0
2019-09-20 20:31:30 GMT 47.712616 19.806358 37,975 249 468 0
2019-09-20 20:31:26 GMT 47.714973 19.815462 37,975 249 468 0
2019-09-20 20:31:20 GMT 47.719894 19.833961 38,000 249 468 0
2019-09-20 20:31:16 GMT 47.723679 19.847717 38,000 249 468 0
2019-09-20 20:31:10 GMT 47.728226 19.864586 38,000 249 468 0
2019-09-20 20:31:05 GMT 47.732525 19.880676 38,000 249 466 0
2019-09-20 20:30:58 GMT 47.737564 19.899536 38,000 249 467 0
2019-09-20 20:30:54 GMT 47.740437 19.910255 38,000 249 467 0
2019-09-20 20:30:48 GMT 47.746490 19.933565 38,000 249 467 0
2019-09-20 20:30:44 GMT 47.748676 19.941313 38,000 249 467 0
2019-09-20 20:30:37 GMT 47.754265 19.962440 38,000 249 467 0
2019-09-20 20:30:33 GMT 47.758026 19.976440 37,975 249 467 0
2019-09-20 20:30:27 GMT 47.762375 19.992783 38,000 249 468 0
2019-09-20 20:30:22 GMT 47.765808 20.006172 38,000 249 468 0
2019-09-20 20:30:17 GMT 47.769581 20.019907 38,000 249 467 -64
2019-09-20 20:30:14 GMT 47.771988 20.029037 38,000 249 467 0
2019-09-20 20:30:11 GMT 47.774837 20.039766 38,000 249 468 0
2019-09-20 20:30:05 GMT 47.779037 20.055817 38,000 249 468 0
2019-09-20 20:30:02 GMT 47.781601 20.065224 38,000 249 468 0
2019-09-20 20:29:59 GMT 47.784012 20.074347 38,000 249 467 0
2019-09-20 20:29:56 GMT 47.787094 20.085823 37,975 249 468 0
2019-09-20 20:29:48 GMT 47.795242 20.116722 37,975 249 468 0
2019-09-20 20:29:45 GMT 47.795242 20.116722 37,975 249 468 0
2019-09-20 20:29:40 GMT 47.799225 20.131622 37,975 249 468 0
2019-09-20 20:29:37 GMT 47.801701 20.141319 37,975 249 468 0
2019-09-20 20:29:34 GMT 47.803703 20.148714 38,000 249 468 0
2019-09-20 20:29:30 GMT 47.811989 20.180054 38,000 249 468 0
2019-09-20 20:29:25 GMT 47.811989 20.180054 38,000 249 468 0
2019-09-20 20:29:15 GMT 47.819016 20.206322 37,975 249 468 0
2019-09-20 20:29:12 GMT 47.821529 20.215689 38,000 249 468 0
2019-09-20 20:29:07 GMT 47.826000 20.232380 38,000 249 468 0
2019-09-20 20:29:04 GMT 47.828655 20.242731 38,000 249 468 0
2019-09-20 20:29:00 GMT 47.830887 20.251324 38,000 249 469 0
2019-09-20 20:28:55 GMT 47.836533 20.272934 37,975 249 468 0
2019-09-20 20:28:51 GMT 47.838943 20.282101 38,000 249 467 0
2019-09-20 20:28:43 GMT 47.844807 20.304565 37,975 249 468 0
2019-09-20 20:28:39 GMT 47.847694 20.315060 37,975 249 467 0
2019-09-20 20:28:34 GMT 47.851501 20.329445 38,000 249 468 0
2019-09-20 20:28:31 GMT 47.853374 20.337172 38,000 249 468 0
2019-09-20 20:28:28 GMT 47.857330 20.351891 38,000 249 467 0
2019-09-20 20:28:24 GMT 47.860062 20.362541 38,000 249 468 0
2019-09-20 20:28:20 GMT 47.862213 20.370918 38,000 249 468 0
2019-09-20 20:28:15 GMT 47.866405 20.386963 37,975 249 468 0
2019-09-20 20:28:12 GMT 47.868919 20.396330 37,975 249 468 0
2019-09-20 20:28:09 GMT 47.870773 20.403534 37,975 249 468 0
2019-09-20 20:28:02 GMT 47.876976 20.427105 38,000 249 467 0
2019-09-20 20:27:59 GMT 47.878418 20.432922 38,000 249 467 0
2019-09-20 20:27:49 GMT 47.886845 20.465063 38,000 249 467 0
2019-09-20 20:27:43 GMT 47.892517 20.486687 38,000 249 467 0
2019-09-20 20:27:39 GMT 47.894806 20.495544 38,000 249 467 0
2019-09-20 20:27:31 GMT 47.901695 20.521828 38,000 249 466 0
2019-09-20 20:27:19 GMT 47.910118 20.554434 38,000 249 466 0
2019-09-20 20:27:16 GMT 47.912247 20.562698 38,000 249 467 0
2019-09-20 20:27:08 GMT 47.918518 20.586800 38,000 249 467 0
2019-09-20 20:27:05 GMT 47.921944 20.599436 38,000 249 467 0
2019-09-20 20:26:57 GMT 47.927204 20.620211 38,000 249 467 0
2019-09-20 20:26:54 GMT 47.929485 20.628592 38,000 249 467 0
2019-09-20 20:26:47 GMT 47.935089 20.650246 38,000 249 467 0
2019-09-20 20:26:43 GMT 47.938190 20.662254 38,000 249 467 0
2019-09-20 20:26:37 GMT 47.942871 20.680252 37,975 249 466 0
2019-09-20 20:26:32 GMT 47.946663 20.695213 38,000 249 466 0
2019-09-20 20:26:25 GMT 47.952065 20.715849 38,000 249 466 0
2019-09-20 20:26:22 GMT 47.955231 20.728172 38,000 249 465 0
2019-09-20 20:26:16 GMT 47.958954 20.742821 38,000 249 465 0
2019-09-20 20:26:11 GMT 47.962875 20.758049 38,000 249 465 0
2019-09-20 20:26:05 GMT 47.967361 20.775764 38,000 249 465 0
2019-09-20 20:26:01 GMT 47.970795 20.788605 38,000 250 465 0
2019-09-20 20:25:50 GMT 47.980320 20.825853 38,000 250 465 0
2019-09-20 20:25:42 GMT 47.984619 20.842918 38,000 249 465 0
2019-09-20 20:25:38 GMT 47.987953 20.855713 38,000 250 465 0
2019-09-20 20:25:34 GMT 47.990936 20.867569 38,000 250 465 0
2019-09-20 20:25:29 GMT 47.994827 20.882538 38,000 250 465 0
2019-09-20 20:25:23 GMT 48.000153 20.903109 38,000 250 465 0
2019-09-20 20:25:19 GMT 48.002808 20.913321 37,975 250 466 0
2019-09-20 20:25:14 GMT 48.006390 20.927265 38,000 250 466 0
2019-09-20 20:25:07 GMT 48.011993 20.949142 37,975 250 466 0
2019-09-20 20:25:03 GMT 48.015934 20.964943 37,975 250 466 0
2019-09-20 20:24:56 GMT 48.020496 20.982971 37,975 250 466 0
2019-09-20 20:24:53 GMT 48.028458 21.014029 38,000 250 466 0
2019-09-20 20:24:46 GMT 48.028458 21.014029 37,975 250 466 0
2019-09-20 20:24:33 GMT 48.038094 21.051424 38,000 250 466 0
2019-09-20 20:24:27 GMT 48.042561 21.069311 38,000 250 467 0
2019-09-20 20:24:23 GMT 48.045635 21.081285 38,000 250 467 0
2019-09-20 20:24:19 GMT 48.048660 21.093338 37,975 250 467 0
2019-09-20 20:24:15 GMT 48.052525 21.108610 38,000 250 467 0
2019-09-20 20:24:12 GMT 48.056713 21.124878 38,000 250 467 0
2019-09-20 20:24:02 GMT 48.061180 21.142977 38,000 250 467 0
2019-09-20 20:23:59 GMT 48.063931 21.153610 38,000 250 467 0
2019-09-20 20:23:52 GMT 48.068802 21.173126 38,000 250 467 0
2019-09-20 20:23:49 GMT 48.071888 21.185303 38,000 250 467 0
2019-09-20 20:23:41 GMT 48.077381 21.206923 38,000 250 467 0
2019-09-20 20:23:31 GMT 48.085297 21.238192 38,000 250 467 0
2019-09-20 20:23:23 GMT 48.091370 21.262184 38,000 250 466 0
2019-09-20 20:23:20 GMT 48.093201 21.269119 38,000 250 466 0
2019-09-20 20:23:16 GMT 48.097229 21.285187 38,000 250 466 0
2019-09-20 20:23:10 GMT 48.100891 21.299332 38,000 250 465 0
2019-09-20 20:23:07 GMT 48.103405 21.309744 37,975 250 465 0
2019-09-20 20:23:03 GMT 48.106571 21.321999 38,000 250 465 0
2019-09-20 20:23:00 GMT 48.108479 21.329674 38,000 250 465 0
2019-09-20 20:22:53 GMT 48.113972 21.351295 37,975 250 465 0
2019-09-20 20:22:50 GMT 48.116440 21.361576 38,000 250 465 0
2019-09-20 20:22:46 GMT 48.119431 21.373283 38,000 250 465 0
2019-09-20 20:22:40 GMT 48.123936 21.391649 37,975 250 465 0
2019-09-20 20:22:34 GMT 48.128632 21.410156 37,975 250 465 0
2019-09-20 20:22:29 GMT 48.131973 21.423752 37,975 250 465 0
2019-09-20 20:22:23 GMT 48.136551 21.442360 37,975 250 464 0
2019-09-20 20:22:19 GMT 48.139343 21.453621 38,000 250 460 0
2019-09-20 20:22:15 GMT 48.142647 21.467003 37,975 250 463 0
2019-09-20 20:22:12 GMT 48.144608 21.474564 37,975 250 458 832
2019-09-20 20:22:08 GMT 48.150375 21.497780 38,000 250 460 0
2019-09-20 20:22:05 GMT 48.150375 21.497780 38,000 250 461 -64
2019-09-20 20:21:58 GMT 48.154800 21.515808 38,000 250 458 448
2019-09-20 20:21:51 GMT 48.160583 21.538837 37,900 250 458 832
2019-09-20 20:21:47 GMT 48.162807 21.547876 37,850 250 458 832
2019-09-20 20:21:42 GMT 48.167084 21.565529 37,775 250 459 896
2019-09-20 20:21:38 GMT 48.169922 21.576586 37,700 250 459 896
2019-09-20 20:21:33 GMT 48.177704 21.607939 37,600 250 461 896
2019-09-20 20:21:27 GMT 48.177704 21.607939 37,575 250 460 832
2019-09-20 20:21:19 GMT 48.184570 21.636093 37,425 250 461 832
2019-09-20 20:21:12 GMT 48.192581 21.668207 37,000 250 465 896
2019-09-20 20:21:07 GMT 48.192581 21.668207 37,275 250 462 896
2019-09-20 20:21:02 GMT 48.201443 21.703419 37,000 250 465 896
2019-09-20 20:20:55 GMT 48.201443 21.703419 37,100 250 464 896
2019-09-20 20:20:51 GMT 48.204346 21.715746 37,000 250 466 960
2019-09-20 20:20:46 GMT 48.208603 21.732576 36,950 250 466 896
2019-09-20 20:20:40 GMT 48.216431 21.764198 36,600 250 465 1152
2019-09-20 20:20:36 GMT 48.216431 21.764198 36,775 250 465 960
2019-09-20 20:20:30 GMT 48.220390 21.780613 36,700 250 466 960
2019-09-20 20:20:25 GMT 48.224258 21.795889 36,600 250 466 960
2019-09-20 20:20:19 GMT 48.228104 21.812086 36,525 250 466 960
2019-09-20 20:20:14 GMT 48.232224 21.828566 36,425 250 466 960
2019-09-20 20:20:10 GMT 48.235336 21.841103 36,375 250 466 960
2019-09-20 20:20:04 GMT 48.239803 21.858891 36,275 250 466 1024
2019-09-20 20:20:00 GMT 48.243576 21.874554 36,175 250 466 960
2019-09-20 20:19:54 GMT 48.247345 21.889971 36,100 250 466 960
2019-09-20 20:19:49 GMT 48.250717 21.904272 35,975 250 465 1152
2019-09-20 20:19:42 GMT 48.255585 21.923796 35,900 250 466 1024
2019-09-20 20:19:38 GMT 48.258518 21.936010 35,825 250 465 1024
2019-09-20 20:19:32 GMT 48.262985 21.953854 35,725 250 465 1024
2019-09-20 20:19:28 GMT 48.265965 21.966368 35,675 250 465 1024
2019-09-20 20:19:22 GMT 48.270573 21.985233 35,550 250 465 1152
2019-09-20 20:19:18 GMT 48.273697 21.997658 35,475 250 465 1152
2019-09-20 20:19:12 GMT 48.278320 22.016672 35,350 250 465 1152
2019-09-20 20:19:08 GMT 48.281342 22.028856 35,275 250 466 1152
2019-09-20 20:19:02 GMT 48.285873 22.047026 35,175 250 466 1088
2019-09-20 20:18:58 GMT 48.289288 22.061125 35,075 250 466 1088
2019-09-20 20:18:51 GMT 48.293747 22.079350 34,975 250 466 1088
2019-09-20 20:18:47 GMT 48.296768 22.091887 34,900 250 466 1088
2019-09-20 20:18:41 GMT 48.301483 22.110563 34,775 250 466 1024
2019-09-20 20:18:36 GMT 48.304871 22.124283 34,725 250 466 832
2019-09-20 20:18:30 GMT 48.308979 22.141788 34,650 251 465 704
2019-09-20 20:18:26 GMT 48.312798 22.157040 34,575 250 464 896
2019-09-20 20:18:21 GMT 48.316864 22.174072 34,500 250 464 896
2019-09-20 20:18:15 GMT 48.320526 22.189001 34,425 251 463 896
2019-09-20 20:18:10 GMT 48.324062 22.204165 34,350 251 463 960
2019-09-20 20:18:06 GMT 48.327667 22.218580 34,275 251 463 1024
2019-09-20 20:17:59 GMT 48.331558 22.235765 34,175 251 462 1088
2019-09-20 20:17:55 GMT 48.334625 22.248934 34,075 251 462 1152
2019-09-20 20:17:49 GMT 48.339333 22.267336 34,000 249 464 1088
2019-09-20 20:17:45 GMT 48.342865 22.279991 33,900 246 468 1088
2019-09-20 20:17:39 GMT 48.348736 22.297403 33,775 242 473 1152
2019-09-20 20:17:35 GMT 48.353531 22.310062 33,700 239 476 1216
2019-09-20 20:17:28 GMT 48.360886 22.327110 33,575 235 481 1216
2019-09-20 20:17:23 GMT 48.367496 22.340120 33,475 232 486 1152
2019-09-20 20:17:19 GMT 48.372665 22.349430 33,400 229 489 1152
2019-09-20 20:17:14 GMT 48.383286 22.365841 33,275 223 495 1280
2019-09-20 20:17:09 GMT 48.389603 22.374149 33,200 220 498 1216
2019-09-20 20:17:03 GMT 48.401642 22.388023 33,075 215 504 1152
2019-09-20 20:16:58 GMT 48.412262 22.398518 32,950 213 505 1280
2019-09-20 20:16:53 GMT 48.421829 22.407602 32,850 213 505 1280
2019-09-20 20:16:48 GMT 48.429409 22.415001 32,750 213 505 1280
2019-09-20 20:16:42 GMT 48.442261 22.427361 32,625 213 505 1408
2019-09-20 20:16:36 GMT 48.454315 22.439070 32,475 213 505 1408
2019-09-20 20:16:31 GMT 48.463581 22.447960 32,350 213 505 1408
2019-09-20 20:16:26 GMT 48.474052 22.458296 32,225 213 505 1408
2019-09-20 20:16:21 GMT 48.482574 22.466318 32,125 213 505 1408
2019-09-20 20:16:17 GMT 48.491180 22.474716 32,025 213 505 1472
2019-09-20 20:16:11 GMT 48.502716 22.485704 31,875 213 505 1600
2019-09-20 20:16:07 GMT 48.510921 22.493784 31,775 213 505 1664
2019-09-20 20:16:00 GMT 48.524506 22.506830 31,575 213 506 1728
2019-09-20 20:15:56 GMT 48.532379 22.514578 31,450 213 506 1792
2019-09-20 20:15:50 GMT 48.544628 22.526237 31,275 213 507 1856
2019-09-20 20:15:46 GMT 48.551147 22.532747 31,175 213 507 1856
2019-09-20 20:15:40 GMT 48.564877 22.545824 30,950 213 509 1920
2019-09-20 20:15:36 GMT 48.572231 22.552980 30,825 213 510 1920
2019-09-20 20:15:30 GMT 48.585938 22.566551 30,600 213 511 1920
2019-09-20 20:15:25 GMT 48.593182 22.573435 30,250 213 511 1280
2019-09-20 20:15:19 GMT 48.606400 22.586481 30,300 213 512 1344
2019-09-20 20:15:14 GMT 48.615143 22.595074 30,225 213 512 1280
2019-09-20 20:15:08 GMT 48.626678 22.606201 30,100 213 511 1280
2019-09-20 20:15:04 GMT 48.635033 22.614271 30,000 213 510 1344
2019-09-20 20:14:59 GMT 48.647415 22.626484 29,850 213 509 1408
2019-09-20 20:14:53 GMT 48.657749 22.636461 29,725 213 509 1280
2019-09-20 20:14:48 GMT 48.666965 22.645496 29,625 213 508 1344
2019-09-20 20:14:43 GMT 48.676743 22.655109 29,525 213 507 1344
2019-09-20 20:14:37 GMT 48.688751 22.666979 29,400 213 507 1216
2019-09-20 20:14:33 GMT 48.695663 22.673529 29,325 213 506 1344
2019-09-20 20:14:27 GMT 48.708912 22.686550 29,175 213 504 1216
2019-09-20 20:14:23 GMT 48.715347 22.692896 29,100 213 503 1280
2019-09-20 20:14:16 GMT 48.729485 22.706861 28,975 213 503 1216
2019-09-20 20:14:12 GMT 48.737354 22.714378 28,875 213 501 1280
2019-09-20 20:14:06 GMT 48.748341 22.725147 28,750 213 500 1344
2019-09-20 20:14:02 GMT 48.757278 22.734093 28,650 213 500 1408
2019-09-20 20:13:55 GMT 48.770500 22.746977 28,500 213 499 1344
2019-09-20 20:13:50 GMT 48.779251 22.755577 28,400 213 498 1280
2019-09-20 20:13:44 GMT 48.792099 22.768082 28,250 213 496 1408
2019-09-20 20:13:41 GMT 48.799362 22.775309 28,150 213 495 1472
2019-09-20 20:13:35 GMT 48.809830 22.785433 28,025 214 495 1408
2019-09-20 20:13:30 GMT 48.819752 22.795185 27,900 214 494 1472
2019-09-20 20:13:24 GMT 48.829559 22.805012 27,725 214 492 1472
2019-09-20 20:13:20 GMT 48.837814 22.813110 27,675 214 492 1472
2019-09-20 20:13:14 GMT 48.850342 22.825436 27,500 214 490 1536
2019-09-20 20:13:09 GMT 48.857025 22.832125 27,400 214 489 1472
2019-09-20 20:13:03 GMT 48.869423 22.844336 27,250 214 488 1536
2019-09-20 20:12:59 GMT 48.876114 22.850859 27,150 214 488 1600
2019-09-20 20:12:53 GMT 48.888275 22.862839 27,000 214 487 1472
2019-09-20 20:12:50 GMT 48.895493 22.870066 26,900 214 486 1472
2019-09-20 20:12:44 GMT 48.907654 22.882269 26,725 214 484 1600
2019-09-20 20:12:39 GMT 48.914158 22.888569 26,625 214 483 1536
2019-09-20 20:12:33 GMT 48.927063 22.901493 26,450 214 482 1536
2019-09-20 20:12:29 GMT 48.934269 22.908518 26,350 214 481 1728
2019-09-20 20:12:22 GMT 48.946472 22.920719 26,175 214 480 1664
2019-09-20 20:12:18 GMT 48.954529 22.928820 26,050 214 480 1664
2019-09-20 20:12:12 GMT 48.965179 22.939453 25,850 214 477 1920
2019-09-20 20:12:08 GMT 48.972748 22.946636 25,775 214 477 1792
2019-09-20 20:12:02 GMT 48.984421 22.958326 25,500 214 475 1984
2019-09-20 20:11:58 GMT 48.990921 22.964806 25,450 214 476 1920
2019-09-20 20:11:51 GMT 49.003464 22.977411 25,125 214 475 1984
2019-09-20 20:11:47 GMT 49.010651 22.984385 25,100 214 476 1984
2019-09-20 20:11:38 GMT 49.029888 23.003492 24,750 214 475 2176
2019-09-20 20:11:30 GMT 49.042271 23.015635 24,500 214 474 2176
2019-09-20 20:11:26 GMT 49.048416 23.021851 24,375 214 474 2240
2019-09-20 20:11:20 GMT 49.060638 23.034035 24,125 214 474 2368
2019-09-20 20:11:17 GMT 49.067127 23.040571 23,975 214 474 2368
2019-09-20 20:11:10 GMT 49.079514 23.052713 23,725 214 474 2368
2019-09-20 20:11:07 GMT 49.086365 23.059811 23,575 214 474 2368
2019-09-20 20:10:57 GMT 49.104046 23.077288 23,200 214 474 2304
2019-09-20 20:10:49 GMT 49.117268 23.090515 22,900 214 474 2112
2019-09-20 20:10:46 GMT 49.123123 23.096359 22,800 214 474 2176
2019-09-20 20:10:39 GMT 49.136536 23.109741 22,525 214 473 1984
2019-09-20 20:10:36 GMT 49.142174 23.115379 22,425 214 472 1920
2019-09-20 20:10:29 GMT 49.154881 23.128099 22,200 214 470 1984
2019-09-20 20:10:25 GMT 49.162399 23.135658 22,075 214 469 1984
2019-09-20 20:10:19 GMT 49.174805 23.147982 21,850 214 467 1664
2019-09-20 20:10:15 GMT 49.179611 23.152983 21,775 214 465 1600
2019-09-20 20:10:08 GMT 49.192474 23.165871 21,575 214 462 1856
2019-09-20 20:10:05 GMT 49.200733 23.174141 21,450 214 461 1728
2019-09-20 20:09:57 GMT 49.211197 23.184532 21,275 214 458 1920
2019-09-20 20:09:54 GMT 49.218750 23.192139 21,125 214 457 1984
2019-09-20 20:09:46 GMT 49.233490 23.207211 20,850 214 455 1984
2019-09-20 20:09:43 GMT 49.236923 23.210520 20,800 214 453 1856
2019-09-20 20:09:33 GMT 49.253616 23.227339 20,500 214 449 1792
2019-09-20 20:09:27 GMT 49.265255 23.239191 20,300 214 445 1920
2019-09-20 20:09:23 GMT 49.271774 23.245842 20,175 214 444 1984
2019-09-20 20:09:11 GMT 49.292725 23.266788 19,850 214 439 1536
2019-09-20 20:09:06 GMT 49.300278 23.274536 19,675 214 436 1920
2019-09-20 20:09:03 GMT 49.305771 23.280029 19,550 214 434 2240
2019-09-20 20:08:59 GMT 49.316940 23.291368 19,375 214 433 2368
2019-09-20 20:08:52 GMT 49.324142 23.298605 19,125 214 431 2176
2019-09-20 20:08:41 GMT 49.340111 23.314722 18,600 214 424 2304
2019-09-20 20:08:32 GMT 49.357662 23.332577 18,350 214 424 2112
2019-09-20 20:08:21 GMT 49.374298 23.349398 17,900 214 422 2688
2019-09-20 20:08:09 GMT 49.396954 23.372400 17,300 214 417 2624
2019-09-20 20:08:04 GMT 49.403145 23.378546 17,150 214 418 2560
2019-09-20 20:08:01 GMT 49.407761 23.383413 17,025 214 417 2624
2019-09-20 20:07:57 GMT 49.414444 23.390245 16,925 214 417 2688
2019-09-20 20:07:51 GMT 49.422184 23.397987 16,650 214 414 2496
2019-09-20 20:07:48 GMT 49.430424 23.406372 16,425 214 414 2432
2019-09-20 20:07:39 GMT 49.443130 23.419437 16,125 214 410 2304
2019-09-20 20:07:36 GMT 49.448639 23.424948 16,000 214 405 1728
2019-09-20 20:07:28 GMT 49.459625 23.436295 15,700 214 402 1728
2019-09-20 20:07:25 GMT 49.464249 23.440922 15,675 214 403 1664
2019-09-20 20:07:22 GMT 49.468876 23.445492 15,575 214 398 2048
2019-09-20 20:07:15 GMT 49.481583 23.458557 15,325 214 394 1728
2019-09-20 20:07:08 GMT 49.490894 23.468060 15,050 214 390 2176
2019-09-20 20:07:05 GMT 49.496521 23.473663 14,975 214 386 2688
2019-09-20 20:06:57 GMT 49.508057 23.485518 14,700 214 386 2816
2019-09-20 20:06:54 GMT 49.513008 23.490477 14,475 214 385 3008
2019-09-20 20:06:48 GMT 49.521061 23.498568 14,175 214 383 2368
2019-09-20 20:06:36 GMT 49.536392 23.514357 13,425 214 378 2496
2019-09-20 20:06:30 GMT 49.546829 23.525053 13,475 214 374 2880
2019-09-20 20:06:23 GMT 49.558685 23.537052 13,100 214 373 2944
2019-09-20 20:06:17 GMT 49.565517 23.544071 12,900 214 373 2560
2019-09-20 20:06:12 GMT 49.572784 23.551508 12,725 214 369 1728
2019-09-20 20:06:07 GMT 49.580181 23.559067 12,550 214 366 2368
2019-09-20 20:06:02 GMT 49.587387 23.566397 12,325 214 364 2560
2019-09-20 20:05:57 GMT 49.593914 23.573097 12,125 214 362 2560
2019-09-20 20:05:50 GMT 49.603176 23.582747 11,825 214 361 2880
2019-09-20 20:05:45 GMT 49.610733 23.590466 11,575 214 360 2880
2019-09-20 20:05:39 GMT 49.620163 23.599861 11,250 214 359 2624
2019-09-20 20:05:35 GMT 49.624649 23.604704 11,125 214 357 2560
2019-09-20 20:05:25 GMT 49.638382 23.618582 10,675 214 355 2688
2019-09-20 20:05:20 GMT 49.646255 23.626677 10,425 214 353 2368
2019-09-20 20:05:15 GMT 49.651592 23.632334 10,300 214 351 2048
2019-09-20 20:05:05 GMT 49.665649 23.646587 9,900 214 346 2240
2019-09-20 20:04:52 GMT 49.680920 23.662546 9,525 214 340 1472
2019-09-20 20:04:46 GMT 49.689487 23.671307 9,400 214 333 960
2019-09-20 20:04:43 GMT 49.692604 23.674423 9,375 214 330 896
2019-09-20 20:04:34 GMT 49.705490 23.687824 9,200 214 316 1024
2019-09-20 20:04:26 GMT 49.715927 23.698593 9,050 214 306 896
2019-09-20 20:04:23 GMT 49.718067 23.700850 9,025 214 302 832
2019-09-20 20:04:13 GMT 49.730545 23.713692 8,800 214 288 2176
2019-09-20 20:04:02 GMT 49.743488 23.726831 8,275 214 284 2688
2019-09-20 20:03:50 GMT 49.754608 23.737986 7,825 214 283 2752
2019-09-20 20:03:47 GMT 49.758850 23.742346 7,650 214 281 2752
2019-09-20 20:03:44 GMT 49.761658 23.744997 7,525 214 281 2752
2019-09-20 20:03:34 GMT 49.772816 23.756376 7,075 214 278 2688
2019-09-20 20:03:27 GMT 49.779984 23.763651 6,775 214 277 2560
2019-09-20 20:03:23 GMT 49.784180 23.767838 6,600 214 275 2688
2019-09-20 20:03:17 GMT 49.790863 23.774559 6,300 214 275 3008
2019-09-20 20:03:13 GMT 49.796631 23.780485 6,025 214 275 3136
2019-09-20 20:03:07 GMT 49.801769 23.785772 5,775 215 275 3264
2019-09-20 20:03:02 GMT 49.806984 23.791189 5,500 215 277 3328
2019-09-20 20:02:53 GMT 49.820206 23.805073 4,975 215 275 1856
2019-09-20 20:02:45 GMT 49.823593 23.808819 4,875 216 270 2048
2019-09-20 20:02:41 GMT 49.828995 23.814890 4,700 220 265 1216
2019-09-20 20:02:28 GMT 49.840073 23.830429 4,525 228 243 1536
2019-09-20 20:02:19 GMT 49.846928 23.843451 4,150 236 235 2752
2019-09-20 20:02:08 GMT 49.852066 23.858257 3,675 252 230 2368
2019-09-20 20:01:58 GMT 49.854095 23.874998 3,225 274 221 2752
2019-09-20 20:01:47 GMT 49.851860 23.889994 2,850 292 214 2112
2019-09-20 20:01:37 GMT 49.846413 23.903057 2,525 312 203 1472
2019-09-20 20:01:27 GMT 49.839245 23.914120 2,325 317 188 960

Making use of Plane Finder data

You are free to use the raw flight data, aircraft information and images provided in this report for your own purposes provided the data is correctly attributed to Plane Finder. We ask that you please credit Plane Finder and link to planefinder.net in close proximity to the content.

Optionally one of the following logos (no smaller then 150x24px) can be used and must link to planefinder.net

Embedding the Plane Finder map

You are welcome to embed the Plane Finder playback map on your website to offer visitors a more interactive experience. We suggest using the following HTML code:

<iframe src="//planefinder.net/data/report/PS949-UR-PSG-7700-squawk-2019-09-20/map" width="800" height="600" seamless="seamless"></iframe>

Where our data comes from

Plane Finder has a global network of data feeds and antenna radars that receive data broadcast directly from aircraft. The primary technologies used are ADS-B and MLAT. We also show feeds from the FAA and a FLARM glider feed.

Click here to find out more about the Plane Finder network.

How we collect our data